M I D A S
Marine Information and Data Acquisition System
Tripno 1912 of the Zeeleeuw from 2010-07-01 05:14:20 to 2010-07-01 14:13:49
Back to CruiseResearch ActivitiesStationsMapUnderway DataData graphs

EquipmentUnitsComment
TimeDGPSUTC
LatitudeDGPSDM.mWGS84
LongitudeDGPSDM.mWGS84
TemperatureSBE03/SBE38deg celciusITS90
ConductivitySBE21S/mITS90
SalinitySBE21 Practical Salinity Units
ChlorophylAChelsea fluorimeterg/lCalibrated in Aceton
Missing or incorrect values are displayed as -999
Sea surface data collected by the RV Zeeleeuw from 2010-07-01 05:06:50 to 2010-07-01 14:21:27
                                                                                    Next 1000 lines
Time Latitude Longitude Temperature Conductivity Salinity ChlorophylA
2010-07-01 05:07:00 51°13.662 2°55.958 22.1178 0.086804 0.457179 -1.000568
2010-07-01 05:07:05 51°13.662 2°55.956 22.1237 0.08566 0.450935 -1.000568
2010-07-01 05:07:10 51°13.663 2°55.953 22.1411 0.086596 0.456051 -1.000568
2010-07-01 05:07:15 51°13.663 2°55.951 22.1435 0.086596 0.456051 -1.000568
2010-07-01 05:07:20 51°13.664 2°55.947 22.1479 0.085764 0.451502 -0.965744
2010-07-01 05:07:24 51°13.665 2°55.945 22.1483 0.085764 0.451516 -1.000568
2010-07-01 05:07:31 51°13.666 2°55.94 22.1535 0.085868 0.452077 -1.000568
2010-07-01 05:07:37 51°13.667 2°55.935 22.145 0.085243 0.448679 -1.000568
2010-07-01 05:07:42 51°13.668 2°55.931 22.1482 0.085243 0.448679 -1.000568
2010-07-01 05:07:48 51°13.67 2°55.926 22.1458 0.085764 0.451523 -1.000568
2010-07-01 05:07:54 51°13.671 2°55.92 22.1498 0.085348 0.449246 -1.000568
2010-07-01 05:07:59 51°13.672 2°55.916 22.1485 0.085556 0.450395 -1.000568
2010-07-01 05:08:04 51°13.673 2°55.91 22.1497 0.085556 0.450402 -1.035392
2010-07-01 05:08:08 51°13.674 2°55.906 22.1555 0.085556 0.450409 -1.000568
2010-07-01 05:08:14 51°13.676 2°55.899 22.1601 0.085764 0.451544 -1.000568
2010-07-01 05:08:19 51°13.677 2°55.893 22.1505 0.085764 0.451544 -1.000568
2010-07-01 05:08:24 51°13.679 2°55.887 22.1462 0.085243 0.448706 -1.035392
2010-07-01 05:08:28 51°13.68 2°55.883 22.1482 0.085348 0.449281 -1.000568
2010-07-01 05:08:34 51°13.681 2°55.875 22.1462 0.085556 0.450422 -1.000568
2010-07-01 05:08:39 51°13.683 2°55.868 22.148 0.085556 0.450422 -1.035392
2010-07-01 05:08:44 51°13.684 2°55.861 22.1524 0.085764 0.451558 -1.035392
2010-07-01 05:08:48 51°13.685 2°55.856 22.153 0.085764 0.451558 -1.035392
2010-07-01 05:08:54 51°13.686 2°55.847 22.1562 0.085764 0.451558 -1.035392
2010-07-01 05:08:59 51°13.688 2°55.84 22.1541 0.085556 0.450422 -1.035392
2010-07-01 05:09:04 51°13.689 2°55.833 22.1518 0.085556 0.450429 -0.965744
2010-07-01 05:09:08 51°13.69 2°55.827 22.1515 0.085452 0.449862 -1.000568
2010-07-01 05:09:13 51°13.691 2°55.819 22.1538 0.085764 0.451564 -1.000568
2010-07-01 05:09:18 51°13.692 2°55.812 22.1549 0.085764 0.451564 -1.000568
2010-07-01 05:09:24 51°13.694 2°55.802 22.158 0.085452 0.449869 -0.965744
2010-07-01 05:09:28 51°13.695 2°55.796 22.1552 0.085243 0.448734 -1.000568
2010-07-01 05:09:34 51°13.696 2°55.787 22.1591 0.085556 0.450443 -1.000568
2010-07-01 05:09:39 51°13.697 2°55.779 22.157 0.085764 0.451571 -1.035392
2010-07-01 05:09:44 51°13.698 2°55.771 22.1605 0.085868 0.452153 -1.000568
2010-07-01 05:09:48 51°13.698 2°55.765 22.1636 0.085868 0.452153 -1.000568
2010-07-01 05:09:54 51°13.699 2°55.757 22.1599 0.084515 0.44477 -1.000568
2010-07-01 05:09:59 51°13.699 2°55.75 22.1559 0.085243 0.448741 -1.035392
2010-07-01 05:10:03 51°13.7 2°55.745 22.1639 0.084203 0.443069 -1.000568
2010-07-01 05:10:08 51°13.7 2°55.739 22.1557 0.085139 0.448173 -1.000568
2010-07-01 05:10:14 51°13.7 2°55.734 22.1511 0.083995 0.441935 -1.035392
2010-07-01 05:10:19 51°13.7 2°55.729 22.1544 0.083995 0.441935 -1.035392
2010-07-01 05:10:23 51°13.7 2°55.726 22.1635 0.084411 0.444216 -1.035392
2010-07-01 05:10:28 51°13.7 2°55.723 22.1678 0.085035 0.44762 -1.000568
2010-07-01 05:10:33 51°13.7 2°55.72 22.1641 0.084099 0.442522 -1.000568
2010-07-01 05:10:38 51°13.7 2°55.718 22.1657 0.084203 0.443089 -0.965744
2010-07-01 05:10:43 51°13.701 2°55.716 22.1611 0.083995 0.441955 -1.035392
2010-07-01 05:10:48 51°13.701 2°55.715 22.1663 0.083995 0.441955 -1.035392
2010-07-01 05:10:52 51°13.701 2°55.715 22.1679 0.084827 0.446499 -0.965744
2010-07-01 05:10:57 51°13.701 2°55.714 22.1747 0.084099 0.442529 -1.000568
2010-07-01 05:11:02 51°13.702 2°55.715 22.1713 0.084723 0.445925 -1.035392
2010-07-01 05:11:07 51°13.703 2°55.715 22.1757 0.084619 0.445371 -0.965744
2010-07-01 05:11:12 51°13.704 2°55.716 22.1781 0.084203 0.443109 -1.035392
2010-07-01 05:11:16 51°13.705 2°55.717 22.1843 0.084203 0.443109 -1.035392
2010-07-01 05:11:21 51°13.706 2°55.719 22.1935 0.083162 0.437441 -1.000568
2010-07-01 05:11:26 51°13.708 2°55.72 22.1988 0.081809 0.430084 -1.000568
2010-07-01 05:11:31 51°13.71 2°55.722 22.2021 0.084723 0.445952 -1.035392
2010-07-01 05:11:36 51°13.713 2°55.724 22.2029 0.084203 0.443129 -1.000568
2010-07-01 05:11:41 51°13.716 2°55.725 22.2097 0.082122 0.431796 -0.965744
2010-07-01 05:11:46 51°13.72 2°55.726 22.2035 0.082122 0.431796 -0.965744
2010-07-01 05:11:50 51°13.723 2°55.726 22.2088 0.081809 0.430097 -1.000568
2010-07-01 05:11:55 51°13.727 2°55.726 22.203 0.081914 0.43067 -1.000568
2010-07-01 05:12:00 51°13.731 2°55.725 22.2054 0.082226 0.432375 -1.000568
2010-07-01 05:12:05 51°13.735 2°55.724 22.2084 0.082226 0.432375 -1.000568
2010-07-01 05:12:10 51°13.74 2°55.722 22.207 0.081393 0.427846 -1.000568
2010-07-01 05:12:15 51°13.745 2°55.718 22.2006 0.081393 0.427846 -1.000568
2010-07-01 05:12:20 51°13.749 2°55.714 22.1718 0.080457 0.422754 -1.000568
2010-07-01 05:12:25 51°13.755 2°55.71 22.1457 0.08233 0.432942 -1.000568
2010-07-01 05:12:30 51°13.76 2°55.705 22.137 0.082226 0.432369 -1.000568
2010-07-01 05:12:35 51°13.766 2°55.7 22.1473 0.08337 0.438594 -1.000568
2010-07-01 05:12:40 51°13.772 2°55.694 22.1564 0.082434 0.433488 -1.000568
2010-07-01 05:12:44 51°13.776 2°55.69 22.1587 0.082434 0.433488 -1.000568
2010-07-01 05:12:50 51°13.784 2°55.682 22.1546 0.08337 0.438574 -1.000568
2010-07-01 05:12:55 51°13.791 2°55.676 22.1433 0.084203 0.443123 -1.000568
2010-07-01 05:13:00 51°13.798 2°55.669 22.1393 0.08337 0.438581 -1.035392
2010-07-01 05:13:05 51°13.805 2°55.663 22.1391 0.084307 0.443697 -1.000568
2010-07-01 05:13:10 51°13.812 2°55.656 22.1226 0.083995 0.442002 -1.000568
2010-07-01 05:13:15 51°13.82 2°55.65 22.1391 0.083995 0.442002 -1.000568
2010-07-01 05:13:20 51°13.827 2°55.643 22.1427 0.085035 0.447681 -1.000568
2010-07-01 05:13:25 51°13.835 2°55.636 22.1417 0.084515 0.444851 -1.000568
2010-07-01 05:13:30 51°13.843 2°55.63 22.1353 0.084723 0.445993 -0.965744
2010-07-01 05:13:35 51°13.851 2°55.623 22.1359 0.085972 0.45281 -1.000568
2010-07-01 05:13:40 51°13.86 2°55.617 22.1336 0.083266 0.438061 -1.000568
2010-07-01 05:13:45 51°13.868 2°55.61 22.1511 0.083266 0.438061 -1.000568
2010-07-01 05:13:50 51°13.876 2°55.603 22.1537 0.085243 0.448843 -1.000568
2010-07-01 05:13:55 51°13.884 2°55.596 22.1519 0.083787 0.440909 -1.035392
2010-07-01 05:14:00 51°13.893 2°55.59 22.1521 0.085035 0.447722 -1.000568
2010-07-01 05:14:05 51°13.901 2°55.583 22.1529 0.083995 0.442056 -1.035392
2010-07-01 05:14:10 51°13.91 2°55.576 22.1603 0.085035 0.447729 -1.000568
2010-07-01 05:14:15 51°13.918 2°55.569 22.148 0.085035 0.447729 -1.000568
2010-07-01 05:14:20 51°13.927 2°55.562 22.1506 0.083891 0.441496 -1.000568
2010-07-01 05:14:25 51°13.936 2°55.556 22.1476 0.085139 0.448303 -1.000568
2010-07-01 05:14:30 51°13.944 2°55.549 22.1506 0.084203 0.443197 -1.000568
2010-07-01 05:14:35 51°13.953 2°55.543 22.1541 0.085348 0.449438 -1.035392
2010-07-01 05:14:40 51°13.962 2°55.537 22.1655 0.084723 0.44604 -1.000568
2010-07-01 05:14:45 51°13.971 2°55.53 22.1647 0.084723 0.44604 -1.000568
2010-07-01 05:14:50 51°13.98 2°55.524 22.158 0.08566 0.451148 -0.965744
2010-07-01 05:14:55 51°13.989 2°55.518 22.1624 0.084515 0.444906 -1.035392
2010-07-01 05:15:00 51°13.998 2°55.512 22.1582 0.085139 0.44831 -1.000568
2010-07-01 05:15:04 51°14.006 2°55.507 22.1525 0.083995 0.442076 -1.035392
2010-07-01 05:15:10 51°14.017 2°55.5 22.1621 0.085452 0.450013 -1.000568
2010-07-01 05:15:15 51°14.026 2°55.493 22.168 0.085452 0.450013 -1.000568
2010-07-01 05:15:20 51°14.036 2°55.487 22.1727 0.084099 0.442643 -1.000568
2010-07-01 05:15:25 51°14.045 2°55.481 22.1674 0.083578 0.439808 -1.000568
2010-07-01 05:15:30 51°14.054 2°55.475 22.1717 0.085348 0.449452 -1.000568
2010-07-01 05:15:35 51°14.064 2°55.468 22.1741 0.084411 0.444345 -1.000568
2010-07-01 05:15:40 51°14.073 2°55.462 22.1747 0.08337 0.438681 -1.035392
2010-07-01 05:15:45 51°14.083 2°55.455 22.1734 0.08337 0.438681 -1.035392
2010-07-01 05:15:50 51°14.092 2°55.449 22.1731 0.085348 0.449459 -1.000568
2010-07-01 05:15:55 51°14.102 2°55.442 22.1753 0.083578 0.439822 -1.000568
2010-07-01 05:16:00 51°14.111 2°55.435 22.1762 0.084515 0.444919 -1.000568
2010-07-01 05:16:05 51°14.121 2°55.427 22.1838 0.083891 0.441523 -1.000568
2010-07-01 05:16:10 51°14.13 2°55.42 22.1869 0.084099 0.442657 -1.000568
2010-07-01 05:16:15 51°14.14 2°55.412 22.1861 0.084099 0.442657 -1.000568
2010-07-01 05:16:20 51°14.149 2°55.404 22.184 0.083474 0.439255 -1.000568
2010-07-01 05:16:24 51°14.156 2°55.397 22.1837 0.083578 0.439828 -1.000568
2010-07-01 05:16:30 51°14.168 2°55.387 22.1848 0.083891 0.441529 -1.000568
2010-07-01 05:16:35 51°14.177 2°55.379 22.1878 0.084099 0.442664 -1.000568
2010-07-01 05:16:40 51°14.186 2°55.37 22.1828 0.082538 0.434167 -1.035392
2010-07-01 05:16:45 51°14.195 2°55.361 22.1776 0.082538 0.434167 -1.035392
2010-07-01 05:16:50 51°14.204 2°55.352 22.1815 0.084203 0.443231 -1.000568
2010-07-01 05:16:55 51°14.214 2°55.343 22.1799 0.083162 0.437567 -1.000568
2010-07-01 05:17:00 51°14.223 2°55.333 22.1783 0.08337 0.438701 -1.035392
2010-07-01 05:17:04 51°14.23 2°55.326 22.1816 0.084723 0.446074 -0.965744
2010-07-01 05:17:10 51°14.241 2°55.315 22.1819 0.084619 0.445507 -1.000568
2010-07-01 05:17:15 51°14.25 2°55.305 22.1895 0.084619 0.445507 -1.000568
2010-07-01 05:17:20 51°14.26 2°55.296 22.17 0.083787 0.440962 -1.035392
2010-07-01 05:17:25 51°14.269 2°55.286 22.1823 0.082642 0.434734 -1.035392
2010-07-01 05:17:30 51°14.279 2°55.276 22.171 0.08618 0.454022 -1.035392
2010-07-01 05:17:35 51°14.288 2°55.266 22.1644 0.08181 0.430209 -1.000568
2010-07-01 05:17:40 51°14.298 2°55.256 22.1862 0.084515 0.444946 -1.000568
2010-07-01 05:17:44 51°14.306 2°55.248 22.1859 0.084515 0.444946 -1.000568
2010-07-01 05:17:50 51°14.317 2°55.235 22.17 0.083787 0.440983 -1.035392
2010-07-01 05:17:55 51°14.327 2°55.224 22.1639 0.082226 0.432487 -1.000568
2010-07-01 05:18:00 51°14.337 2°55.214 22.1601 0.08285 0.435887 -1.000568
2010-07-01 05:18:05 51°14.347 2°55.203 22.1533 0.085348 0.4495 -1.000568
2010-07-01 05:18:10 51°14.358 2°55.192 22.1805 0.082642 0.434754 -1.000568
2010-07-01 05:18:15 51°14.368 2°55.181 22.1581 0.082642 0.434754 -1.000568
2010-07-01 05:18:20 51°14.378 2°55.17 22.1447 0.083995 0.442124 -1.000568
2010-07-01 05:18:25 51°14.389 2°55.159 22.1601 0.082642 0.43476 -1.000568
2010-07-01 05:18:30 51°14.4 2°55.149 22.1587 0.083578 0.439862 -1.035392
2010-07-01 05:18:35 51°14.411 2°55.139 22.1585 0.082018 0.431368 -1.000568
2010-07-01 05:18:40 51°14.422 2°55.128 22.1721 0.084203 0.443272 -1.035392
2010-07-01 05:18:45 51°14.433 2°55.118 22.1774 0.084203 0.443272 -1.035392
2010-07-01 05:18:50 51°14.444 2°55.108 22.1724 0.084619 0.445548 -1.000568
2010-07-01 05:18:55 51°14.455 2°55.097 22.1713 0.080977 0.425719 -1.000568
2010-07-01 05:19:00 51°14.466 2°55.086 22.1745 0.084827 0.44669 -1.000568
2010-07-01 05:19:05 51°14.477 2°55.076 22.1801 0.080769 0.424593 -1.000568
2010-07-01 05:19:10 51°14.488 2°55.065 22.1739 0.081185 0.426851 -1.000568
2010-07-01 05:19:15 51°14.5 2°55.054 22.161 0.081185 0.426851 -1.000568
2010-07-01 05:19:20 51°14.511 2°55.043 22.1508 0.080665 0.424021 -0.965744
2010-07-01 05:19:24 51°14.52 2°55.034 22.1534 0.082538 0.43422 -1.035392
2010-07-01 05:19:30 51°14.535 2°55.021 22.1739 0.085972 0.452942 -1.000568
2010-07-01 05:19:35 51°14.547 2°55.01 22.1436 0.083162 0.437621 -1.000568
2010-07-01 05:19:40 51°14.559 2°54.999 22.1722 0.085556 0.45067 -1.035392
2010-07-01 05:19:44 51°14.569 2°54.99 22.1227 0.085556 0.45067 -1.035392
2010-07-01 05:19:50 51°14.584 2°54.977 22.1441 0.083474 0.439328 -1.000568
2010-07-01 05:19:55 51°14.597 2°54.967 22.157 0.084307 0.443873 -1.035392
2010-07-01 05:20:00 51°14.61 2°54.957 22.173 0.085764 0.451813 -1.000568
2010-07-01 05:20:05 51°14.623 2°54.946 22.1646 0.083891 0.44161 -1.035392
2010-07-01 05:20:10 51°14.636 2°54.935 22.1631 0.083266 0.438215 -0.965744
2010-07-01 05:20:15 51°14.649 2°54.924 22.1832 0.083266 0.438215 -0.965744
2010-07-01 05:20:20 51°14.662 2°54.914 22.1813 0.07952 0.41783 -1.000568
2010-07-01 05:20:25 51°14.675 2°54.902 22.1808 0.080041 0.420658 -1.000568
2010-07-01 05:20:30 51°14.688 2°54.89 22.1558 0.083266 0.438221 -1.035392
2010-07-01 05:20:35 51°14.701 2°54.878 22.1413 0.079936 0.420099 -1.000568
2010-07-01 05:20:40 51°14.714 2°54.867 22.1587 0.084515 0.445021 -1.000568
2010-07-01 05:20:45 51°14.727 2°54.855 22.1499 0.084515 0.445021 -1.000568
2010-07-01 05:20:50 51°14.741 2°54.843 22.1586 0.08181 0.430281 -1.000568
2010-07-01 05:20:55 51°14.754 2°54.83 22.1437 0.083058 0.437087 -1.000568
2010-07-01 05:21:00 51°14.767 2°54.817 22.154 0.082954 0.436527 -1.000568
2010-07-01 05:21:05 51°14.78 2°54.805 22.153 0.080769 0.424632 -1.000568
2010-07-01 05:21:10 51°14.793 2°54.792 22.1636 0.083162 0.437661 -1.000568
2010-07-01 05:21:15 51°14.807 2°54.78 22.1791 0.083162 0.437661 -1.000568
2010-07-01 05:21:20 51°14.82 2°54.767 22.147 0.085764 0.451854 -1.000568
2010-07-01 05:21:25 51°14.833 2°54.753 22.1601 0.082642 0.43484 -1.000568
2010-07-01 05:21:30 51°14.846 2°54.741 22.1557 0.08899 0.469487 -1.000568
2010-07-01 05:21:35 51°14.859 2°54.727 22.1546 0.08285 0.43598 -1.035392
2010-07-01 05:21:40 51°14.872 2°54.714 22.142 0.082226 0.43258 -1.000568
2010-07-01 05:21:45 51°14.885 2°54.7 22.1497 0.082226 0.43258 -1.000568
2010-07-01 05:21:50 51°14.898 2°54.686 22.157 0.083787 0.44109 -1.000568
2010-07-01 05:21:55 51°14.911 2°54.672 22.16 0.081185 0.426909 -1.000568
2010-07-01 05:22:00 51°14.924 2°54.659 22.154 0.080457 0.422954 -1.035392
2010-07-01 05:22:04 51°14.935 2°54.647 22.1225 0.082954 0.436554 -1.035392
2010-07-01 05:22:10 51°14.951 2°54.63 22.1511 0.08618 0.454154 -1.000568
2010-07-01 05:22:15 51°14.964 2°54.616 22.1623 0.08618 0.454154 -1.000568
2010-07-01 05:22:20 51°14.977 2°54.601 22.1687 0.081601 0.429194 -1.000568
2010-07-01 05:22:25 51°14.99 2°54.586 22.1611 0.084411 0.444501 -1.000568
2010-07-01 05:22:30 51°15.003 2°54.572 22.1656 0.088573 0.46724 -1.000568
2010-07-01 05:22:35 51°15.015 2°54.556 22.1575 0.077439 0.406585 -1.035392
2010-07-01 05:22:40 51°15.028 2°54.541 22.1448 0.080873 0.425237 -1.000568
2010-07-01 05:22:45 51°15.041 2°54.525 22.1255 0.080873 0.425237 -1.000568
2010-07-01 05:22:50 51°15.054 2°54.509 22.1082 0.0867 0.457009 -1.035392
2010-07-01 05:22:55 51°15.067 2°54.493 22.1452 0.080353 0.422407 -1.035392
2010-07-01 05:23:00 51°15.08 2°54.478 22.1179 0.08285 0.436 -1.035392
2010-07-01 05:23:05 51°15.094 2°54.463 22.1491 0.082746 0.435447 -1.035392
2010-07-01 05:23:10 51°15.107 2°54.447 22.1464 0.081601 0.429207 -1.000568
2010-07-01 05:23:15 51°15.12 2°54.432 22.1419 0.081601 0.429207 -1.000568
2010-07-01 05:23:20 51°15.134 2°54.417 22.1307 0.082538 0.434313 -1.035392
2010-07-01 05:23:25 51°15.147 2°54.402 22.1547 0.07952 0.4179 -1.000568
2010-07-01 05:23:30 51°15.16 2°54.386 22.1461 0.08337 0.438855 -1.035392
2010-07-01 05:23:35 51°15.173 2°54.37 22.1548 0.081185 0.426968 -1.035392
2010-07-01 05:23:40 51°15.186 2°54.354 22.1139 0.080561 0.423578 -1.000568
2010-07-01 05:23:45 51°15.199 2°54.337 22.1317 0.080561 0.423578 -1.000568
2010-07-01 05:23:50 51°15.212 2°54.321 22.1396 0.080977 0.425836 -1.000568
2010-07-01 05:23:55 51°15.225 2°54.305 22.1398 0.084411 0.444542 -1.035392
2010-07-01 05:24:00 51°15.238 2°54.29 22.1482 0.083058 0.437174 -1.000568
2010-07-01 05:24:05 51°15.251 2°54.273 22.1489 0.082538 0.434333 -1.000568
2010-07-01 05:24:10 51°15.264 2°54.258 22.1646 0.082954 0.436607 -1.000568
2010-07-01 05:24:15 51°15.277 2°54.241 22.1426 0.082954 0.436607 -1.000568
2010-07-01 05:24:20 51°15.289 2°54.225 22.1532 0.08337 0.438882 -1.000568
2010-07-01 05:24:25 51°15.303 2°54.209 22.1621 0.082954 0.43662 -1.000568
2010-07-01 05:24:30 51°15.316 2°54.194 22.1631 0.083787 0.441158 -1.000568
2010-07-01 05:24:35 51°15.329 2°54.178 22.1801 0.08337 0.438889 -1.000568
2010-07-01 05:24:40 51°15.342 2°54.161 22.1702 0.079416 0.417373 -0.965744
2010-07-01 05:24:45 51°15.355 2°54.145 22.1505 0.079416 0.417373 -0.965744
2010-07-01 05:24:50 51°15.368 2°54.128 22.1524 0.084099 0.44288 -1.000568
2010-07-01 05:24:55 51°15.381 2°54.11 22.1509 0.077231 0.405511 -1.035392
2010-07-01 05:25:00 51°15.394 2°54.093 22.1503 0.078376 0.411726 -1.000568
2010-07-01 05:25:05 51°15.407 2°54.075 22.1408 0.083058 0.437207 -1.000568
2010-07-01 05:25:10 51°15.42 2°54.057 22.1323 0.081914 0.430979 -1.000568
2010-07-01 05:25:15 51°15.433 2°54.04 22.1479 0.081914 0.430979 -1.000568
2010-07-01 05:25:20 51°15.447 2°54.022 22.1613 0.084307 0.444022 -1.000568
2010-07-01 05:25:25 51°15.46 2°54.005 22.1728 0.083474 0.439483 -1.000568
2010-07-01 05:25:30 51°15.474 2°53.987 21.6486 0.083058 0.437221 -1.000568
2010-07-01 05:25:35 51°15.487 2°53.969 20.8146 0.069323 0.362746 -0.896096
2010-07-01 05:25:40 51°15.5 2°53.951 20.3224 0.069323 0.362746 -0.896096
2010-07-01 05:25:45 51°15.513 2°53.933 19.7584 2.173335 14.078367 -1.000568
2010-07-01 05:25:50 51°15.527 2°53.915 19.5215 2.175332 14.0733 -0.93092
2010-07-01 05:25:55 51°15.541 2°53.897 19.3973 3.980673 27.453027 -0.338911
2010-07-01 05:26:00 51°15.555 2°53.878 19.3697 4.015272 27.558489 0.392394
2010-07-01 05:26:05 51°15.569 2°53.859 19.2321 4.132801 28.434406 0.322746
2010-07-01 05:26:10 51°15.583 2°53.84 19.2195 4.208353 29.216928 1.193347
2010-07-01 05:26:15 51°15.597 2°53.821 19.11 4.208353 29.216928 1.193347
2010-07-01 05:26:20 51°15.612 2°53.802 19.0766 4.279901 29.984282 1.959476
2010-07-01 05:26:25 51°15.626 2°53.783 19.1232 4.253316 30.104681 2.272893
2010-07-01 05:26:30 51°15.64 2°53.764 19.0561 4.257648 30.466361 2.377365
2010-07-01 05:26:35 51°15.655 2°53.745 19.0382 4.228105 30.366902 2.412189
2010-07-01 05:26:40 51°15.67 2°53.727 19.0053 4.219139 30.492802 2.481837
2010-07-01 05:26:44 51°15.682 2°53.712 19.0256 4.219139 30.492802 2.481837
2010-07-01 05:26:50 51°15.7 2°53.69 18.9994 4.208273 30.527056 2.551485
2010-07-01 05:26:55 51°15.715 2°53.671 18.9972 4.190336 30.453607 2.551485
2010-07-01 05:27:00 51°15.729 2°53.653 18.9724 4.179258 30.424752 2.551485
2010-07-01 05:27:05 51°15.744 2°53.634 18.9831 4.162271 30.331783 2.551485
2010-07-01 05:27:10 51°15.759 2°53.616 18.9673 4.163011 30.378147 2.551485
2010-07-01 05:27:15 51°15.774 2°53.598 18.976 4.163011 30.378147 2.551485
2010-07-01 05:27:20 51°15.789 2°53.579 18.9608 4.162167 30.400846 2.516661
2010-07-01 05:27:25 51°15.804 2°53.561 18.945 4.163645 30.434189 2.447013
2010-07-01 05:27:30 51°15.819 2°53.542 18.9648 4.159635 30.418678 2.447013
2010-07-01 05:27:35 51°15.834 2°53.524 18.9417 4.15647 30.409521 2.412189
2010-07-01 05:27:40 51°15.848 2°53.505 18.9107 4.15647 30.409521 2.412189
2010-07-01 05:27:45 51°15.863 2°53.486 18.9079 4.151828 30.385183 2.377365
2010-07-01 05:27:50 51°15.878 2°53.468 18.8889 4.145497 30.344976 2.377365
2010-07-01 05:27:55 51°15.893 2°53.45 18.8857 4.14402 30.340721 2.307717
2010-07-01 05:28:00 51°15.908 2°53.432 18.8758 4.153728 30.425692 2.307717
2010-07-01 05:28:04 51°15.92 2°53.418 18.856 4.15204 30.420252 2.307717
2010-07-01 05:28:10 51°15.939 2°53.397 18.8401 4.154467 30.447384 2.238069
2010-07-01 05:28:15 51°15.954 2°53.379 18.8479 4.154467 30.447384 2.238069
2010-07-01 05:28:20 51°15.97 2°53.363 18.8186 4.150352 30.419506 2.203245
2010-07-01 05:28:24 51°15.982 2°53.349 18.8209 4.147714 30.411001 2.168421
2010-07-01 05:28:30 51°16.002 2°53.331 18.8043 4.152673 30.463041 2.063949
2010-07-01 05:28:35 51°16.018 2°53.315 18.8184 4.146659 30.427974 1.9943
2010-07-01 05:28:40 51°16.036 2°53.302 18.8051 4.147926 30.448796 1.889828
2010-07-01 05:28:44 51°16.049 2°53.29 18.7942 4.147926 30.448796 1.889828
2010-07-01 05:28:50 51°16.07 2°53.274 18.7949 4.148454 30.461493 1.785356
2010-07-01 05:28:55 51°16.087 2°53.261 18.7964 4.145921 30.452287 1.715708
2010-07-01 05:29:00 51°16.105 2°53.249 18.7804 4.145394 30.4574 1.680884
2010-07-01 05:29:05 51°16.123 2°53.236 18.7745 4.144445 30.456962 1.64606
2010-07-01 05:29:10 51°16.141 2°53.225 18.7611 4.147821 30.494598 1.611236
2010-07-01 05:29:15 51°16.159 2°53.213 18.7588 4.147821 30.494598 1.611236
2010-07-01 05:29:20 51°16.177 2°53.202 18.7536 4.143284 30.461614 1.611236
2010-07-01 05:29:25 51°16.195 2°53.19 18.7579 4.140963 30.446263 1.611236
2010-07-01 05:29:30 51°16.213 2°53.179 18.7401 4.141596 30.458798 1.611236
2010-07-01 05:29:35 51°16.231 2°53.167 18.7405 4.139803 30.449341 1.64606
2010-07-01 05:29:40 51°16.249 2°53.156 18.721 4.140225 30.461728 1.64606
2010-07-01 05:29:45 51°16.266 2°53.144 18.7305 4.140225 30.461728 1.64606
2010-07-01 05:29:50 51°16.284 2°53.132 18.7004 4.139381 30.461633 1.611236
2010-07-01 05:29:55 51°16.301 2°53.119 18.685 4.139487 30.46828 1.611236
2010-07-01 05:30:00 51°16.319 2°53.107 18.6701 4.141386 30.490175 1.576412
2010-07-01 05:30:05 51°16.337 2°53.096 18.6562 4.148561 30.552758 1.541588
2010-07-01 05:30:10 51°16.354 2°53.084 18.6441 4.148033 30.555282 1.541588
2010-07-01 05:30:15 51°16.372 2°53.072 18.6397 4.148033 30.555282 1.541588
2010-07-01 05:30:20 51°16.389 2°53.06 18.6341 4.14835 30.563686 1.47194
2010-07-01 05:30:25 51°16.407 2°53.047 18.6305 4.148878 30.574883 1.437116
2010-07-01 05:30:30 51°16.424 2°53.035 18.6337 4.148456 30.58198 1.332643
2010-07-01 05:30:35 51°16.442 2°53.023 18.6272 4.150461 30.614328 1.367467
2010-07-01 05:30:40 51°16.459 2°53.011 18.6268 4.150566 30.624198 1.297819
2010-07-01 05:30:44 51°16.473 2°53.002 18.6243 4.150566 30.624198 1.297819
2010-07-01 05:30:50 51°16.495 2°52.988 18.6329 4.150145 30.633444 1.262995
2010-07-01 05:30:55 51°16.513 2°52.977 18.6285 4.15215 30.658431 1.297819
2010-07-01 05:31:00 51°16.53 2°52.965 18.6214 4.151833 30.663789 1.262995
2010-07-01 05:31:05 51°16.548 2°52.954 18.6236 4.152361 30.676101 1.297819
2010-07-01 05:31:10 51°16.566 2°52.942 18.6234 4.152888 30.680447 1.262995
2010-07-01 05:31:15 51°16.584 2°52.93 18.6158 4.152888 30.680447 1.262995
2010-07-01 05:31:20 51°16.602 2°52.918 18.6152 4.150778 30.668378 1.297819
2010-07-01 05:31:25 51°16.62 2°52.907 18.6161 4.150567 30.667702 1.367467
2010-07-01 05:31:30 51°16.638 2°52.895 18.6067 4.151095 30.672049 1.402292
2010-07-01 05:31:35 51°16.656 2°52.883 18.6032 4.149829 30.665869 1.402292
2010-07-01 05:31:40 51°16.674 2°52.871 18.6074 4.152994 30.68929 1.402292
2010-07-01 05:31:45 51°16.692 2°52.86 18.5896 4.152994 30.68929 1.402292
2010-07-01 05:31:50 51°16.71 2°52.849 18.5843 4.151306 30.680166 1.367467
2010-07-01 05:31:55 51°16.728 2°52.839 18.5891 4.152361 30.689924 1.332643
2010-07-01 05:32:00 51°16.746 2°52.829 18.5696 4.152361 30.69152 1.297819
2010-07-01 05:32:04 51°16.761 2°52.821 18.5618 4.151728 30.688963 1.297819
2010-07-01 05:32:10 51°16.783 2°52.81 18.5526 4.151517 30.692012 1.297819
2010-07-01 05:32:15 51°16.802 2°52.801 18.5564 4.151517 30.692012 1.297819
2010-07-01 05:32:20 51°16.821 2°52.792 18.5551 4.152994 30.706318 1.297819
2010-07-01 05:32:25 51°16.839 2°52.784 18.5489 4.152889 30.709708 1.332643
2010-07-01 05:32:30 51°16.858 2°52.776 18.5521 4.153206 30.714982 1.332643
2010-07-01 05:32:35 51°16.877 2°52.767 18.5406 4.147613 30.67526 1.297819
2010-07-01 05:32:40 51°16.896 2°52.76 18.5325 4.152995 30.724966 1.297819
2010-07-01 05:32:44 51°16.911 2°52.753 18.5278 4.152995 30.724966 1.297819
2010-07-01 05:32:50 51°16.934 2°52.743 18.5245 4.152784 30.730691 1.297819
2010-07-01 05:32:55 51°16.953 2°52.735 18.5162 4.150357 30.717067 1.262995
2010-07-01 05:33:00 51°16.972 2°52.727 18.5083 4.150885 30.725155 1.228171
2010-07-01 05:33:05 51°16.99 2°52.717 18.4965 4.151307 30.730773 1.193347
2010-07-01 05:33:10 51°17.009 2°52.708 18.4943 4.151623 30.737122 1.228171
2010-07-01 05:33:15 51°17.028 2°52.7 18.4587 4.151623 30.737122 1.228171
2010-07-01 05:33:20 51°17.047 2°52.691 18.4388 4.152679 30.751173 1.193347
2010-07-01 05:33:25 51°17.066 2°52.683 18.4265 4.151413 30.74606 1.193347
2010-07-01 05:33:30 51°17.085 2°52.676 18.3883 4.15194 30.755761 1.193347
2010-07-01 05:33:35 51°17.104 2°52.668 18.3747 4.150885 30.753995 1.193347
2010-07-01 05:33:40 51°17.124 2°52.662 18.3317 4.151413 30.763167 1.193347
2010-07-01 05:33:45 51°17.142 2°52.654 18.3188 4.151413 30.763167 1.193347
2010-07-01 05:33:50 51°17.162 2°52.648 18.3028 4.15173 30.774344 1.193347
2010-07-01 05:33:55 51°17.181 2°52.641 18.2726 4.15078 30.779344 1.228171
2010-07-01 05:34:00 51°17.2 2°52.635 18.2496 4.153735 30.817181 1.228171
2010-07-01 05:34:05 51°17.219 2°52.629 18.2459 4.152574 30.82207 1.228171
2010-07-01 05:34:10 51°17.239 2°52.624 18.2059 4.150148 30.823467 1.332643
2010-07-01 05:34:15 51°17.258 2°52.618 18.1779 4.150148 30.823467 1.332643
2010-07-01 05:34:20 51°17.277 2°52.614 18.151 4.152575 30.864554 1.297819
2010-07-01 05:34:25 51°17.296 2°52.608 18.1416 4.152365 30.88059 1.367467
2010-07-01 05:34:30 51°17.316 2°52.604 18.1103 4.151837 30.897259 1.332643
2010-07-01 05:34:35 51°17.335 2°52.598 18.0679 4.15131 30.914494 1.297819
2010-07-01 05:34:40 51°17.354 2°52.594 18.0404 4.150783 30.927425 1.332643
2010-07-01 05:34:45 51°17.373 2°52.589 18.0118 4.150783 30.927425 1.332643
2010-07-01 05:34:50 51°17.393 2°52.586 17.989 4.15015 30.941122 1.297819
2010-07-01 05:34:55 51°17.412 2°52.581 17.9885 4.14994 30.957806 1.297819
2010-07-01 05:35:00 51°17.431 2°52.577 17.971 4.148885 30.97455 1.297819
2010-07-01 05:35:05 51°17.45 2°52.572 17.9431 4.148569 30.998024 1.262995
2010-07-01 05:35:10 51°17.469 2°52.568 17.9338 4.147197 31.006203 1.228171
2010-07-01 05:35:15 51°17.488 2°52.563 17.9258 4.147197 31.006203 1.228171
2010-07-01 05:35:20 51°17.508 2°52.559 17.9237 4.142766 30.992686 1.228171
2010-07-01 05:35:25 51°17.526 2°52.554 17.8874 4.146143 31.045435 1.228171
2010-07-01 05:35:30 51°17.546 2°52.55 17.8828 4.144877 31.0551 1.262995
2010-07-01 05:35:35 51°17.565 2°52.546 17.8608 4.142979 31.059487 1.228171
2010-07-01 05:35:40 51°17.584 2°52.542 17.8479 4.141818 31.068965 1.228171
2010-07-01 05:35:44 51°17.599 2°52.538 17.8405 4.141818 31.068965 1.228171
2010-07-01 05:35:50 51°17.622 2°52.534 17.8216 4.140763 31.077694 1.262995
2010-07-01 05:35:55 51°17.641 2°52.529 17.8099 4.138653 31.070461 1.228171
2010-07-01 05:36:00 51°17.66 2°52.525 17.7976 4.13781 31.074376 1.262995
2010-07-01 05:36:05 51°17.679 2°52.52 17.7982 4.137282 31.085345 1.228171
2010-07-01 05:36:10 51°17.698 2°52.516 17.7901 4.135805 31.086166 1.228171
2010-07-01 05:36:15 51°17.717 2°52.511 17.7685 4.135805 31.086166 1.228171
2010-07-01 05:36:20 51°17.736 2°52.506 17.7646 4.135172 31.094067 1.262995
2010-07-01 05:36:25 51°17.755 2°52.503 17.7647 4.133801 31.096882 1.228171
2010-07-01 05:36:30 51°17.774 2°52.5 17.762 4.132324 31.096612 1.228171
2010-07-01 05:36:35 51°17.794 2°52.501 17.7632 4.132008 31.10774 1.228171
2010-07-01 05:36:40 51°17.813 2°52.501 17.7443 4.130742 31.107041 1.228171
2010-07-01 05:36:45 51°17.832 2°52.504 17.7445 4.130742 31.107041 1.228171
2010-07-01 05:36:50 51°17.851 2°52.507 17.7346 4.130425 31.109902 1.193347
2010-07-01 05:36:55 51°17.871 2°52.512 17.7251 4.129687 31.112532 1.193347
2010-07-01 05:37:00 51°17.89 2°52.516 17.7358 4.091282 30.79998 1.228171
2010-07-01 05:37:05 51°17.909 2°52.521 17.7336 4.127683 31.115022 1.193347
2010-07-01 05:37:10 51°17.928 2°52.527 17.7094 4.126311 31.105703 1.158523
2010-07-01 05:37:15 51°17.947 2°52.533 17.7174 4.126311 31.105703 1.158523
2010-07-01 05:37:20 51°17.966 2°52.538 17.7133 4.125573 31.106679 1.228171
2010-07-01 05:37:25 51°17.985 2°52.546 17.7117 4.12494 31.106884 1.193347
2010-07-01 05:37:30 51°18.004 2°52.551 17.7182 4.122619 31.09234 1.193347
2010-07-01 05:37:35 51°18.023 2°52.559 17.7204 4.124307 31.110961 1.193347
2010-07-01 05:37:40 51°18.042 2°52.565 17.7094 4.122091 31.095089 1.228171
2010-07-01 05:37:44 51°18.057 2°52.57 17.7006 4.122091 31.095089 1.228171
2010-07-01 05:37:50 51°18.08 2°52.578 17.7112 4.122724 31.106498 1.158523
2010-07-01 05:37:55 51°18.099 2°52.585 17.7021 4.117449 31.068199 1.193347
2010-07-01 05:38:00 51°18.118 2°52.591 17.6947 4.116816 31.066741 1.228171
2010-07-01 05:38:05 51°18.137 2°52.598 17.6926 4.120825 31.099924 1.228171
2010-07-01 05:38:10 51°18.156 2°52.604 17.6873 4.115655 31.056424 1.193347
2010-07-01 05:38:15 51°18.175 2°52.611 17.6813 4.115655 31.056424 1.193347
2010-07-01 05:38:20 51°18.194 2°52.617 17.6848 4.115972 31.060192 1.193347
2010-07-01 05:38:25 51°18.213 2°52.624 17.6819 4.1146 31.055283 1.193347
2010-07-01 05:38:30 51°18.232 2°52.63 17.6919 4.119876 31.103002 1.228171
2010-07-01 05:38:35 51°18.251 2°52.636 17.6766 4.118715 31.094339 1.193347
2010-07-01 05:38:40 51°18.271 2°52.643 17.6772 4.117871 31.091108 1.193347
2010-07-01 05:38:45 51°18.29 2°52.648 17.6721 4.117871 31.091108 1.193347
2010-07-01 05:38:50 51°18.309 2°52.655 17.6624 4.118927 31.103866 1.228171
2010-07-01 05:38:55 51°18.328 2°52.661 17.6674 4.113124 31.058883 1.193347
2010-07-01 05:39:00 51°18.347 2°52.667 17.6638 4.114284 31.071421 1.193347
2010-07-01 05:39:05 51°18.366 2°52.674 17.6606 4.1165 31.089524 1.193347
2010-07-01 05:39:10 51°18.385 2°52.679 17.6581 4.116183 31.089627 1.158523
2010-07-01 05:39:15 51°18.404 2°52.686 17.6528 4.116183 31.089627 1.158523
2010-07-01 05:39:20 51°18.423 2°52.691 17.6504 4.115234 31.082184 1.158523
2010-07-01 05:39:24 51°18.438 2°52.696 17.6508 4.115023 31.084283 1.158523
2010-07-01 05:39:30 51°18.461 2°52.702 17.6575 4.114284 31.080831 1.193347
2010-07-01 05:39:35 51°18.48 2°52.709 17.6409 4.110697 31.054491 1.193347
2010-07-01 05:39:40 51°18.5 2°52.714 17.6347 4.108904 31.041044 1.193347
2010-07-01 05:39:44 51°18.515 2°52.719 17.6436 4.108904 31.041044 1.193347
2010-07-01 05:39:50 51°18.538 2°52.726 17.6366 4.109431 31.0477 1.193347
2010-07-01 05:39:55 51°18.557 2°52.732 17.635 4.100674 30.977813 1.193347
2010-07-01 05:40:00 51°18.576 2°52.738 17.6302 4.110381 31.062341 1.193347
2010-07-01 05:40:05 51°18.595 2°52.743 17.6328 4.108482 31.048555 1.228171
2010-07-01 05:40:10 51°18.614 2°52.75 17.6319 4.107638 31.044764 1.262995
2010-07-01 05:40:15 51°18.633 2°52.755 17.6295 4.107638 31.044764 1.262995
2010-07-01 05:40:20 51°18.653 2°52.761 17.624 4.104789 31.023527 1.228171
2010-07-01 05:40:25 51°18.672 2°52.767 17.6297 4.101096 30.995178 1.262995
2010-07-01 05:40:30 51°18.691 2°52.772 17.6283 4.104051 31.02007 1.193347
2010-07-01 05:40:35 51°18.71 2°52.778 17.6218 4.100885 30.997822 1.262995
2010-07-01 05:40:40 51°18.729 2°52.783 17.6218 4.106266 31.043723 1.262995
2010-07-01 05:40:45 51°18.748 2°52.789 17.6284 4.106266 31.043723 1.262995
2010-07-01 05:40:50 51°18.768 2°52.794 17.6294 4.101835 31.00693 1.262995
2010-07-01 05:40:55 51°18.787 2°52.8 17.619 4.100886 31.00114 1.262995
2010-07-01 05:41:00 51°18.806 2°52.806 17.6221 4.104684 31.034813 1.297819
2010-07-01 05:41:05 51°18.825 2°52.811 17.623 4.103523 31.02503 1.262995
2010-07-01 05:41:10 51°18.844 2°52.817 17.6212 4.098142 30.981891 1.297819
2010-07-01 05:41:15 51°18.863 2°52.823 17.6206 4.098142 30.981891 1.297819
2010-07-01 05:41:20 51°18.882 2°52.828 17.6204 4.098564 30.987107 1.297819
2010-07-01 05:41:25 51°18.902 2°52.834 17.6211 4.100358 31.001671 1.297819
2010-07-01 05:41:30 51°18.921 2°52.839 17.6264 4.105528 31.04525 1.297819
2010-07-01 05:41:35 51°18.94 2°52.845 17.6274 4.10595 31.052132 1.297819
2010-07-01 05:41:40 51°18.959 2°52.851 17.6321 4.102996 31.026118 1.297819
2010-07-01 05:41:44 51°18.974 2°52.855 17.6333 4.102996 31.026118 1.297819
2010-07-01 05:41:50 51°18.997 2°52.862 17.6299 4.105317 31.047349 1.297819
2010-07-01 05:41:55 51°19.016 2°52.868 17.6312 4.106478 31.05658 1.332643
2010-07-01 05:42:00 51°19.035 2°52.873 17.6356 4.105739 31.052016 1.332643
2010-07-01 05:42:05 51°19.054 2°52.878 17.6358 4.105 31.04468 1.332643
2010-07-01 05:42:10 51°19.074 2°52.884 17.6432 4.104578 31.040568 1.332643
2010-07-01 05:42:15 51°19.093 2°52.889 17.6386 4.104578 31.040568 1.332643
2010-07-01 05:42:20 51°19.112 2°52.895 17.6443 4.106372 31.053474 1.297819
2010-07-01 05:42:25 51°19.131 2°52.9 17.6417 4.078624 30.819659 1.297819
2010-07-01 05:42:30 51°19.151 2°52.905 17.644 4.104895 31.038806 1.297819
2010-07-01 05:42:35 51°19.17 2°52.911 17.6494 4.106477 31.052148 1.332643
2010-07-01 05:42:40 51°19.189 2°52.916 17.6506 4.106372 31.049597 1.297819
2010-07-01 05:42:45 51°19.208 2°52.921 17.6538 4.106372 31.049597 1.297819
2010-07-01 05:42:50 51°19.227 2°52.927 17.6536 4.106688 31.051711 1.297819
2010-07-01 05:42:55 51°19.246 2°52.932 17.6577 4.107216 31.054496 1.297819
2010-07-01 05:43:00 51°19.265 2°52.938 17.6577 4.107849 31.058724 1.332643
2010-07-01 05:43:05 51°19.284 2°52.943 17.6603 4.107849 31.055401 1.332643
2010-07-01 05:43:10 51°19.304 2°52.949 17.6603 4.109432 31.067078 1.332643
2010-07-01 05:43:15 51°19.323 2°52.955 17.6655 4.109432 31.067078 1.332643
2010-07-01 05:43:20 51°19.342 2°52.961 17.6669 4.107216 31.04785 1.367467
2010-07-01 05:43:25 51°19.361 2°52.966 17.6718 4.108693 31.058084 1.297819
2010-07-01 05:43:30 51°19.38 2°52.972 17.6706 4.108904 31.057093 1.297819
2010-07-01 05:43:35 51°19.399 2°52.977 17.6723 4.109431 31.062646 1.332643
2010-07-01 05:43:40 51°19.419 2°52.982 17.6707 4.109009 31.055767 1.332643
2010-07-01 05:43:45 51°19.438 2°52.988 17.6728 4.109009 31.055767 1.332643
2010-07-01 05:43:50 51°19.457 2°52.992 17.6725 4.109115 31.053888 1.297819
2010-07-01 05:43:55 51°19.476 2°52.998 17.6761 4.084637 30.8483 1.332643
2010-07-01 05:44:00 51°19.495 2°53.003 17.6762 4.109537 31.054676 1.332643
2010-07-01 05:44:04 51°19.511 2°53.008 17.6773 4.109959 31.056018 1.262995
2010-07-01 05:44:10 51°19.534 2°53.014 17.6808 4.110381 31.058466 1.297819
2010-07-01 05:44:15 51°19.553 2°53.02 17.6783 4.110381 31.058466 1.297819
2010-07-01 05:44:20 51°19.572 2°53.025 17.6818 4.109748 31.051473 1.332643
2010-07-01 05:44:25 51°19.591 2°53.03 17.6815 4.109115 31.048353 1.332643
2010-07-01 05:44:30 51°19.611 2°53.036 17.683 4.110381 31.055145 1.297819
2010-07-01 05:44:35 51°19.63 2°53.041 17.6876 4.109959 31.04993 1.262995
2010-07-01 05:44:40 51°19.649 2°53.047 17.6914 4.110381 31.054038 1.332643
2010-07-01 05:44:45 51°19.668 2°53.052 17.6996 4.110381 31.054038 1.332643
2010-07-01 05:44:50 51°19.687 2°53.057 17.6938 4.110803 31.05704 1.297819
2010-07-01 05:44:55 51°19.707 2°53.062 17.7014 4.11017 31.050048 1.297819
2010-07-01 05:45:00 51°19.726 2°53.067 17.6981 4.111752 31.061164 1.262995
2010-07-01 05:45:05 51°19.745 2°53.073 17.7047 4.110486 31.051607 1.332643
2010-07-01 05:45:10 51°19.764 2°53.078 17.7099 4.110592 31.04973 1.297819
2010-07-01 05:45:15 51°19.783 2°53.083 17.7099 4.110592 31.04973 1.297819
2010-07-01 05:45:20 51°19.803 2°53.089 17.708 4.110697 31.050618 1.297819
2010-07-01 05:45:25 51°19.822 2°53.094 17.7103 4.111225 31.050636 1.367467
2010-07-01 05:45:30 51°19.841 2°53.099 17.7156 4.110697 31.043982 1.332643
2010-07-01 05:45:35 51°19.86 2°53.105 17.7175 4.111225 31.046212 1.332643
2010-07-01 05:45:40 51°19.879 2°53.11 17.7231 4.111436 31.04633 1.332643
2010-07-01 05:45:45 51°19.898 2°53.115 17.7269 4.111436 31.04633 1.332643
2010-07-01 05:45:50 51°19.917 2°53.121 17.739 4.111857 31.044907 1.297819
2010-07-01 05:45:55 51°19.937 2°53.125 17.7364 4.111857 31.042696 1.332643
2010-07-01 05:46:00 51°19.956 2°53.131 17.7439 4.111541 31.04169 1.332643
2010-07-01 05:46:05 51°19.975 2°53.136 17.749 4.112174 31.044808 1.297819
2010-07-01 05:46:10 51°19.994 2°53.142 17.7569 4.112385 31.044926 1.297819
2010-07-01 05:46:15 51°20.014 2°53.148 17.7635 4.112385 31.044926 1.297819
2010-07-01 05:46:20 51°20.033 2°53.153 17.7723 4.113018 31.047491 1.297819
2010-07-01 05:46:24 51°20.048 2°53.157 17.785 4.112807 31.041847 1.367467
2010-07-01 05:46:30 51°20.071 2°53.164 17.7971 4.113018 31.039756 1.367467
2010-07-01 05:46:35 51°20.09 2°53.17 17.809 4.114073 31.043109 1.332643
2010-07-01 05:46:40 51°20.109 2°53.175 17.8246 4.114284 31.041019 1.367467
2010-07-01 05:46:45 51°20.128 2°53.18 17.8381 4.114284 31.041019 1.367467
2010-07-01 05:46:50 51°20.147 2°53.185 17.8543 4.1146 31.038713 1.402292
2010-07-01 05:46:55 51°20.166 2°53.19 17.8675 4.114811 31.036072 1.402292
2010-07-01 05:47:00 51°20.186 2°53.196 17.8771 4.115022 31.031225 1.402292
2010-07-01 05:47:04 51°20.201 2°53.2 17.885 4.115338 31.02451 1.402292
2010-07-01 05:47:10 51°20.224 2°53.207 17.8984 4.115233 31.014254 1.367467
2010-07-01 05:47:15 51°20.243 2°53.212 17.9102 4.115233 31.014254 1.367467
2010-07-01 05:47:20 51°20.262 2°53.217 17.9235 4.114916 31.002233 1.332643
2010-07-01 05:47:25 51°20.281 2°53.222 17.9347 4.115549 30.994892 1.402292
2010-07-01 05:47:30 51°20.3 2°53.227 17.9397 4.116604 30.99 1.402292
2010-07-01 05:47:35 51°20.319 2°53.231 17.9542 4.11692 30.983313 1.437116
2010-07-01 05:47:40 51°20.338 2°53.236 17.9646 4.117975 30.983376 1.367467
2010-07-01 05:47:45 51°20.358 2°53.241 17.9708 4.117975 30.983376 1.367467
2010-07-01 05:47:50 51°20.376 2°53.246 17.9804 4.11903 30.98289 1.402292
2010-07-01 05:47:55 51°20.396 2°53.251 17.9929 4.118186 30.964289 1.506764
2010-07-01 05:48:00 51°20.415 2°53.256 18.0026 4.119557 30.966462 1.437116
2010-07-01 05:48:05 51°20.434 2°53.262 18.008 4.121245 30.969644 1.47194
2010-07-01 05:48:10 51°20.453 2°53.267 18.0146 4.119768 30.946862 1.506764
2010-07-01 05:48:15 51°20.472 2°53.272 18.0173 4.119768 30.946862 1.506764
2010-07-01 05:48:20 51°20.491 2°53.277 18.0221 4.120928 30.947822 1.506764
2010-07-01 05:48:24 51°20.507 2°53.282 18.0211 4.1204 30.934104 1.541588
2010-07-01 05:48:30 51°20.53 2°53.288 18.019 4.119556 30.921026 1.541588
2010-07-01 05:48:35 51°20.55 2°53.293 18.0137 4.121772 30.928089 1.64606
2010-07-01 05:48:40 51°20.569 2°53.298 18.0074 4.121244 30.916575 1.611236
2010-07-01 05:48:44 51°20.584 2°53.302 18.0013 4.121244 30.916575 1.611236
2010-07-01 05:48:50 51°20.607 2°53.308 17.9948 4.121877 30.91368 1.64606
2010-07-01 05:48:55 51°20.626 2°53.313 17.9909 4.122615 30.91276 1.64606
2010-07-01 05:49:00 51°20.646 2°53.318 17.9817 4.123248 30.914778 1.64606
2010-07-01 05:49:05 51°20.665 2°53.323 17.9612 4.123354 30.912386 1.611236
2010-07-01 05:49:10 51°20.684 2°53.329 17.9403 4.122932 30.908859 1.611236
2010-07-01 05:49:15 51°20.703 2°53.334 17.9304 4.122932 30.908859 1.611236
2010-07-01 05:49:20 51°20.722 2°53.339 17.9052 4.121033 30.895166 1.576412
2010-07-01 05:49:25 51°20.741 2°53.345 17.8895 4.122721 30.912005 1.611236
2010-07-01 05:49:30 51°20.76 2°53.35 17.8622 4.122615 30.913305 1.611236
2010-07-01 05:49:35 51°20.779 2°53.355 17.8459 4.121771 30.913343 1.576412
2010-07-01 05:49:40 51°20.798 2°53.36 17.8229 4.119978 30.903257 1.576412
2010-07-01 05:49:45 51°20.817 2°53.365 17.813 4.119978 30.903257 1.576412
2010-07-01 05:49:50 51°20.837 2°53.371 17.8022 4.119451 30.911402 1.541588
2010-07-01 05:49:55 51°20.856 2°53.376 17.7837 4.116391 30.89891 1.541588
2010-07-01 05:50:00 51°20.875 2°53.381 17.7926 4.115547 30.904412 1.541588
2010-07-01 05:50:05 51°20.894 2°53.386 17.7697 4.112171 30.888715 1.506764
2010-07-01 05:50:10 51°20.913 2°53.391 17.7603 4.109217 30.883653 1.47194
2010-07-01 05:50:15 51°20.932 2°53.396 17.7509 4.109217 30.883653 1.47194
2010-07-01 05:50:20 51°20.951 2°53.401 17.7441 4.105841 30.871222 1.506764
2010-07-01 05:50:25 51°20.97 2°53.406 17.7406 4.102782 30.860889 1.47194
2010-07-01 05:50:30 51°20.989 2°53.411 17.7411 4.10025 30.856071 1.437116
2010-07-01 05:50:35 51°21.008 2°53.415 17.7329 4.097402 30.842572 1.437116
2010-07-01 05:50:40 51°21.028 2°53.421 17.7283 4.095608 30.83628 1.437116
2010-07-01 05:50:44 51°21.043 2°53.424 17.7288 4.095608 30.83628 1.437116
2010-07-01 05:50:50 51°21.066 2°53.431 17.7249 4.09276 30.827151 1.402292
2010-07-01 05:50:55 51°21.085 2°53.436 17.7165 4.079466 30.721576 1.437116
2010-07-01 05:51:00 51°21.104 2°53.441 17.7144 4.08548 30.776976 1.437116
2010-07-01 05:51:04 51°21.12 2°53.445 17.7134 4.082104 30.756283 1.402292
2010-07-01 05:51:10 51°21.143 2°53.452 17.7056 4.086219 30.795217 1.402292
2010-07-01 05:51:15 51°21.162 2°53.457 17.7026 4.086219 30.795217 1.402292
2010-07-01 05:51:20 51°21.181 2°53.462 17.6999 4.08643 30.803013 1.402292
2010-07-01 05:51:24 51°21.196 2°53.466 17.6991 4.084531 30.791439 1.437116
2010-07-01 05:51:30 51°21.219 2°53.472 17.6958 4.084109 30.792275 1.402292
2010-07-01 05:51:35 51°21.239 2°53.478 17.6883 4.08337 30.789903 1.402292
2010-07-01 05:51:40 51°21.258 2°53.483 17.6873 4.083265 30.789016 1.332643
2010-07-01 05:51:45 51°21.277 2°53.488 17.6871 4.083265 30.789016 1.332643
2010-07-01 05:51:50 51°21.296 2°53.493 17.6748 4.082421 30.787401 1.367467
2010-07-01 05:51:55 51°21.316 2°53.498 17.676 4.080839 30.778481 1.367467
2010-07-01 05:52:00 51°21.335 2°53.503 17.6665 4.081788 30.790299 1.332643
2010-07-01 05:52:04 51°21.351 2°53.507 17.6648 4.081366 30.787847 1.332643
2010-07-01 05:52:10 51°21.374 2°53.514 17.6602 4.080628 30.784926 1.332643
2010-07-01 05:52:15 51°21.393 2°53.519 17.6582 4.080628 30.784926 1.332643
2010-07-01 05:52:20 51°21.413 2°53.524 17.6511 4.079678 30.779682 1.332643
2010-07-01 05:52:25 51°21.432 2°53.529 17.6443 4.074509 30.740048 1.297819
2010-07-01 05:52:30 51°21.451 2°53.534 17.6302 4.075142 30.749752 1.367467
2010-07-01 05:52:35 51°21.47 2°53.539 17.6244 4.079784 30.790438 1.297819
2010-07-01 05:52:40 51°21.489 2°53.544 17.6155 4.079784 30.790438 1.297819
2010-07-01 05:52:44 51°21.505 2°53.548 17.6041 4.075564 30.759875 1.297819
2010-07-01 05:52:50 51°21.528 2°53.554 17.5966 4.077779 30.782351 1.297819
2010-07-01 05:52:55 51°21.547 2°53.559 17.5847 4.077779 30.786191 1.297819
2010-07-01 05:53:00 51°21.566 2°53.564 17.5694 4.079257 30.804109 1.262995
2010-07-01 05:53:04 51°21.582 2°53.569 17.5652 4.07894 30.808035 1.262995
2010-07-01 05:53:10 51°21.605 2°53.575 17.558 4.078096 30.807522 1.262995
2010-07-01 05:53:15 51°21.624 2°53.58 17.5485 4.078096 30.807522 1.262995
2010-07-01 05:53:20 51°21.643 2°53.585 17.5412 4.077991 30.809931 1.262995
2010-07-01 05:53:25 51°21.662 2°53.591 17.5404 4.077358 30.813944 1.262995
2010-07-01 05:53:30 51°21.681 2°53.595 17.5333 4.077147 30.822066 1.228171
2010-07-01 05:53:35 51°21.7 2°53.597 17.5333 4.076831 30.828204 1.262995
2010-07-01 05:53:40 51°21.72 2°53.6 17.5316 4.076092 30.831339 1.262995
2010-07-01 05:53:45 51°21.739 2°53.601 17.5363 4.076092 30.831339 1.262995
2010-07-01 05:53:50 51°21.758 2°53.602 17.5264 4.073771 30.817278 1.228171
2010-07-01 05:53:55 51°21.777 2°53.602 17.5302 4.075143 30.838759 1.228171
2010-07-01 05:54:00 51°21.797 2°53.604 17.5335 4.075038 30.842279 1.228171
2010-07-01 05:54:05 51°21.816 2°53.603 17.5261 4.072928 30.831646 1.228171
2010-07-01 05:54:10 51°21.835 2°53.604 17.5258 4.073877 30.847379 1.262995
2010-07-01 05:54:15 51°21.855 2°53.603 17.5278 4.073877 30.847379 1.262995
2010-07-01 05:54:20 51°21.874 2°53.604 17.5251 4.073561 30.846363 1.228171
2010-07-01 05:54:24 51°21.89 2°53.603 17.5315 4.072717 30.840895 1.228171
2010-07-01 05:54:30 51°21.913 2°53.603 17.5335 4.073983 30.852684 1.228171
2010-07-01 05:54:35 51°21.932 2°53.602 17.5341 4.074194 30.855017 1.228171
2010-07-01 05:54:40 51°21.951 2°53.603 17.5381 4.073456 30.851544 1.193347
2010-07-01 05:54:45 51°21.971 2°53.602 17.5397 4.073456 30.851544 1.193347
2010-07-01 05:54:50 51°21.99 2°53.602 17.5445 4.072928 30.848747 1.193347
2010-07-01 05:54:55 51°22.01 2°53.602 17.5476 4.072928 30.848747 1.193347
2010-07-01 05:55:00 51°22.029 2°53.602 17.5536 4.070502 30.827712 1.193347
2010-07-01 05:55:05 51°22.049 2°53.602 17.5592 4.073667 30.852773 1.228171
2010-07-01 05:55:10 51°22.068 2°53.602 17.5614 4.069763 30.819273 1.228171
2010-07-01 05:55:15 51°22.088 2°53.601 17.562 4.069763 30.819273 1.228171
2010-07-01 05:55:20 51°22.107 2°53.601 17.5645 4.070607 30.826397 1.228171
2010-07-01 05:55:25 51°22.126 2°53.601 17.5688 4.072717 30.839792 1.262995
2010-07-01 05:55:30 51°22.146 2°53.601 17.5733 4.072611 30.837798 1.228171
2010-07-01 05:55:35 51°22.165 2°53.601 17.5781 4.072822 30.835167 1.228171
2010-07-01 05:55:40 51°22.185 2°53.601 17.5805 4.073983 30.841099 1.297819
2010-07-01 05:55:45 51°22.204 2°53.601 17.5819 4.073983 30.841099 1.297819
2010-07-01 05:55:50 51°22.224 2°53.601 17.5881 4.072189 30.825415 1.228171
2010-07-01 05:55:55 51°22.243 2°53.601 17.593 4.071451 30.815328 1.228171
2010-07-01 05:56:00 51°22.262 2°53.601 17.5918 4.071662 30.814353 1.297819
2010-07-01 05:56:04 51°22.278 2°53.6 17.5933 4.073244 30.823845 1.262995
2010-07-01 05:56:10 51°22.301 2°53.6 17.5991 4.072189 30.812193 1.297819
2010-07-01 05:56:15 51°22.321 2°53.599 17.6013 4.072189 30.812193 1.297819
2010-07-01 05:56:20 51°22.34 2°53.598 17.5981 4.074932 30.831469 1.262995
2010-07-01 05:56:25 51°22.359 2°53.598 17.5999 4.072928 30.814016 1.297819
2010-07-01 05:56:30 51°22.379 2°53.598 17.5959 4.073982 30.819607 1.297819
2010-07-01 05:56:35 51°22.398 2°53.598 17.5919 4.074404 30.819311 1.297819
2010-07-01 05:56:40 51°22.418 2°53.597 17.5932 4.074615 30.820539 1.297819
2010-07-01 05:56:45 51°22.437 2°53.597 17.5878 4.074615 30.820539 1.297819
2010-07-01 05:56:50 51°22.456 2°53.597 17.5825 4.075565 30.82469 1.297819
2010-07-01 05:56:55 51°22.476 2°53.597 17.5783 4.075143 30.818931 1.297819
2010-07-01 05:57:00 51°22.495 2°53.597 17.5772 4.072822 30.798268 1.297819
2010-07-01 05:57:05 51°22.515 2°53.597 17.5712 4.074615 30.814485 1.332643
2010-07-01 05:57:10 51°22.534 2°53.597 17.5722 4.071767 30.792126 1.297819
2010-07-01 05:57:15 51°22.554 2°53.597 17.5638 4.071767 30.792126 1.297819
2010-07-01 05:57:20 51°22.574 2°53.597 17.5613 4.073982 30.81135 1.367467
2010-07-01 05:57:24 51°22.589 2°53.597 17.562 4.074088 30.81224 1.332643
2010-07-01 05:57:30 51°22.613 2°53.598 17.5588 4.074404 30.81766 1.262995
2010-07-01 05:57:35 51°22.633 2°53.598 17.5571 4.074299 30.821175 1.262995
2010-07-01 05:57:40 51°22.652 2°53.598 17.5564 4.073877 30.819268 1.262995
2010-07-01 05:57:44 51°22.668 2°53.598 17.5502 4.073877 30.819268 1.262995
2010-07-01 05:57:50 51°22.692 2°53.599 17.5462 4.073772 30.820582 1.297819
2010-07-01 05:57:55 51°22.711 2°53.599 17.5455 4.070184 30.791988 1.297819
2010-07-01 05:58:00 51°22.731 2°53.6 17.5364 4.069446 30.790714 1.262995
2010-07-01 05:58:04 51°22.747 2°53.6 17.5376 4.068391 30.783468 1.262995
2010-07-01 05:58:10 51°22.771 2°53.601 17.5338 4.072717 30.821599 1.228171
2010-07-01 05:58:15 51°22.791 2°53.601 17.5343 4.072717 30.821599 1.228171
2010-07-01 05:58:20 51°22.811 2°53.602 17.5309 4.06818 30.785541 1.262995
2010-07-01 05:58:25 51°22.831 2°53.603 17.5301 4.071662 30.819312 1.262995
2010-07-01 05:58:30 51°22.851 2°53.603 17.5338 4.072928 30.829441 1.228171
2010-07-01 05:58:35 51°22.871 2°53.604 17.5333 4.072928 30.834403 1.228171
2010-07-01 05:58:40 51°22.891 2°53.604 17.5306 4.072611 30.832835 1.228171
2010-07-01 05:58:45 51°22.911 2°53.604 17.5268 4.072611 30.832835 1.228171
2010-07-01 05:58:50 51°22.931 2°53.605 17.5161 4.071134 30.826988 1.228171
2010-07-01 05:58:55 51°22.951 2°53.605 17.5164 4.07124 30.827879 1.228171
2010-07-01 05:59:00 51°22.971 2°53.606 17.5041 4.07124 30.828982 1.193347
2010-07-01 05:59:05 51°22.991 2°53.606 17.4914 4.070923 30.827965 1.228171
2010-07-01 05:59:10 51°23.01 2°53.606 17.4802 4.071029 30.829958 1.228171
2010-07-01 05:59:15 51°23.03 2°53.607 17.4754 4.071029 30.829958 1.228171
2010-07-01 05:59:20 51°23.05 2°53.607 17.4684 4.071662 30.836956 1.228171
2010-07-01 05:59:25 51°23.07 2°53.607 17.4554 4.07124 30.833394 1.193347
2010-07-01 05:59:30 51°23.09 2°53.607 17.4468 4.0743 30.861429 1.193347
2010-07-01 05:59:35 51°23.11 2°53.607 17.4235 4.073772 30.863051 1.158523
2010-07-01 05:59:40 51°23.13 2°53.608 17.406 4.073983 30.87091 1.193347
2010-07-01 05:59:44 51°23.146 2°53.607 17.3928 4.073983 30.87091 1.193347
2010-07-01 05:59:50 51°23.169 2°53.608 17.3691 4.075883 30.896352 1.193347
2010-07-01 05:59:55 51°23.189 2°53.608 17.3521 4.075355 30.895769 1.193347
2010-07-01 06:00:00 51°23.209 2°53.608 17.3334 4.076621 30.914219 1.158523
2010-07-01 06:00:04 51°23.225 2°53.607 17.3232 4.074722 30.909799 1.158523
2010-07-01 06:00:10 51°23.248 2°53.607 17.2989 4.076938 30.937405 1.123699
2010-07-01 06:00:15 51°23.268 2°53.607 17.2849 4.076938 30.937405 1.123699
2010-07-01 06:00:20 51°23.288 2°53.607 17.273 4.077888 30.957094 1.158523
2010-07-01 06:00:24 51°23.303 2°53.607 17.2721 4.07715 30.964733 1.088875
2010-07-01 06:00:30 51°23.327 2°53.607 17.2562 4.077783 30.986221 1.123699
2010-07-01 06:00:35 51°23.346 2°53.607 17.2549 4.077994 31.003044 1.123699
2010-07-01 06:00:40 51°23.366 2°53.607 17.2419 4.077256 31.009603 1.088875
2010-07-01 06:00:45 51°23.386 2°53.607 17.2295 4.077256 31.009603 1.088875
2010-07-01 06:00:50 51°23.405 2°53.607 17.2154 4.077573 31.027349 1.088875
2010-07-01 06:00:55 51°23.425 2°53.606 17.2055 4.076729 31.033032 1.088875
2010-07-01 06:01:00 51°23.444 2°53.606 17.2065 4.076413 31.048789 1.123699
2010-07-01 06:01:05 51°23.464 2°53.606 17.2008 4.076624 31.058413 1.054051
2010-07-01 06:01:10 51°23.484 2°53.605 17.1921 4.076624 31.067369 1.123699
2010-07-01 06:01:15 51°23.503 2°53.605 17.178 4.076624 31.067369 1.123699
2010-07-01 06:01:20 51°23.523 2°53.604 17.178 4.074725 31.061315 1.088875
2010-07-01 06:01:24 51°23.538 2°53.604 17.1748 4.073776 31.062769 1.088875
2010-07-01 06:01:30 51°23.561 2°53.604 17.1704 4.074831 31.081267 1.123699
2010-07-01 06:01:35 51°23.581 2°53.603 17.1724 4.072827 31.072073 1.088875
2010-07-01 06:01:40 51°23.6 2°53.603 17.1619 4.073776 31.088004 1.054051
2010-07-01 06:01:45 51°23.62 2°53.602 17.1728 4.073776 31.088004 1.054051
2010-07-01 06:01:50 51°23.639 2°53.603 17.1697 4.073249 31.091375 1.088875
2010-07-01 06:01:55 51°23.658 2°53.602 17.1648 4.073249 31.095307 1.088875
2010-07-01 06:02:00 51°23.678 2°53.602 17.1599 4.072511 31.099134 1.088875
2010-07-01 06:02:05 51°23.697 2°53.602 17.1599 4.070506 31.084318 1.054051
2010-07-01 06:02:10 51°23.717 2°53.602 17.1611 4.071667 31.098693 1.088875
2010-07-01 06:02:15 51°23.736 2°53.601 17.1646 4.071667 31.098693 1.088875
2010-07-01 06:02:20 51°23.756 2°53.601 17.1697 4.067447 31.068383 1.123699
2010-07-01 06:02:25 51°23.775 2°53.601 17.1668 4.070506 31.093309 1.054051
2010-07-01 06:02:30 51°23.795 2°53.6 17.1672 4.069662 31.088933 1.123699
2010-07-01 06:02:35 51°23.814 2°53.6 17.1603 4.069979 31.093876 1.088875
2010-07-01 06:02:40 51°23.834 2°53.6 17.161 4.06924 31.088712 1.088875
2010-07-01 06:02:45 51°23.853 2°53.6 17.1613 4.06924 31.088712 1.088875
2010-07-01 06:02:50 51°23.873 2°53.6 17.162 4.068924 31.08714 1.123699
2010-07-01 06:02:55 51°23.893 2°53.6 17.162 4.067236 31.073327 1.088875
2010-07-01 06:03:00 51°23.913 2°53.599 17.1685 4.067552 31.074899 1.123699
2010-07-01 06:03:05 51°23.932 2°53.599 17.1612 4.069768 31.091517 1.088875
2010-07-01 06:03:10 51°23.952 2°53.599 17.1667 4.068713 31.085344 1.123699
2010-07-01 06:03:15 51°23.971 2°53.598 17.1627 4.068713 31.085344 1.123699
2010-07-01 06:03:20 51°23.991 2°53.598 17.1643 4.067341 31.07535 1.088875
2010-07-01 06:03:24 51°24.006 2°53.598 17.1625 4.067025 31.07434 1.123699
2010-07-01 06:03:30 51°24.03 2°53.597 17.1622 4.067341 31.077036 1.088875
2010-07-01 06:03:35 51°24.05 2°53.597 17.1617 4.068396 31.084334 1.088875
2010-07-01 06:03:40 51°24.069 2°53.597 17.1593 4.067658 31.078607 1.088875
2010-07-01 06:03:45 51°24.089 2°53.596 17.1533 4.067658 31.078607 1.088875
2010-07-01 06:03:50 51°24.108 2°53.595 17.1578 4.06808 31.081639 1.054051
2010-07-01 06:03:55 51°24.128 2°53.594 17.1524 4.065442 31.061425 1.054051
2010-07-01 06:04:00 51°24.147 2°53.594 17.1485 4.067552 31.076023 1.088875
2010-07-01 06:04:04 51°24.163 2°53.593 17.1538 4.06713 31.077487 1.088875
2010-07-01 06:04:10 51°24.187 2°53.592 17.1424 4.066814 31.074791 1.088875
2010-07-01 06:04:15 51°24.206 2°53.592 17.1388 4.066814 31.074791 1.088875
2010-07-01 06:04:20 51°24.226 2°53.592 17.135 4.066708 31.072769 1.088875
2010-07-01 06:04:24 51°24.242 2°53.592 17.1318 4.066603 31.072432 1.088875
2010-07-01 06:04:30 51°24.266 2°53.592 17.1348 4.067025 31.07715 1.088875
2010-07-01 06:04:35 51°24.285 2°53.592 17.1319 4.067025 31.081085 1.054051
2010-07-01 06:04:40 51°24.305 2°53.591 17.132 4.066603 31.076366 1.054051
2010-07-01 06:04:45 51°24.325 2°53.591 17.1318 4.066603 31.076366 1.054051
2010-07-01 06:04:50 51°24.344 2°53.591 17.1234 4.066814 31.080975 1.019227
2010-07-01 06:04:55 51°24.364 2°53.59 17.112 4.066497 31.082215 1.054051
2010-07-01 06:05:00 51°24.384 2°53.59 17.1161 4.063965 31.063454 1.054051
2010-07-01 06:05:04 51°24.4 2°53.59 17.1037 4.066392 31.085253 1.054051
2010-07-01 06:05:10 51°24.424 2°53.589 17.1043 4.065443 31.079975 1.088875
2010-07-01 06:05:15 51°24.444 2°53.589 17.0915 4.065443 31.079975 1.088875
2010-07-01 06:05:20 51°24.463 2°53.589 17.0774 4.06597 31.086157 1.054051
2010-07-01 06:05:25 51°24.483 2°53.589 17.08 4.066392 31.089191 1.054051
2010-07-01 06:05:30 51°24.503 2°53.59 17.069 4.065443 31.087851 1.054051
2010-07-01 06:05:35 51°24.523 2°53.59 17.0588 4.062172 31.061102 1.054051
2010-07-01 06:05:40 51°24.543 2°53.59 17.0627 4.06481 31.090336 1.019227
2010-07-01 06:05:45 51°24.562 2°53.589 17.0482 4.06481 31.090336 1.019227
2010-07-01 06:05:50 51°24.582 2°53.588 17.0409 4.065548 31.100575 1.019227
2010-07-01 06:05:55 51°24.602 2°53.587 17.0363 4.066814 31.115315 1.019227
2010-07-01 06:06:00 51°24.621 2°53.587 17.0235 4.066709 31.121744 0.984403
2010-07-01 06:06:05 51°24.641 2°53.586 17.0237 4.066815 31.129412 0.984403
2010-07-01 06:06:10 51°24.661 2°53.586 17.0151 4.067237 31.14035 0.949579
2010-07-01 06:06:15 51°24.68 2°53.585 17.0127 4.067237 31.14035 0.949579
2010-07-01 06:06:20 51°24.7 2°53.585 17.0088 4.067659 31.147905 0.949579
2010-07-01 06:06:24 51°24.716 2°53.585 17.0015 4.063966 31.123725 0.949579
2010-07-01 06:06:30 51°24.739 2°53.584 17.0078 4.063439 31.12148 0.984403
2010-07-01 06:06:35 51°24.759 2°53.582 17.0024 4.064389 31.137494 0.949579
2010-07-01 06:06:40 51°24.779 2°53.582 16.9944 4.066499 31.162863 0.879931
2010-07-01 06:06:44 51°24.794 2°53.58 16.9965 4.066499 31.162863 0.879931
2010-07-01 06:06:50 51°24.818 2°53.58 16.9908 4.067132 31.174495 0.914755
2010-07-01 06:06:55 51°24.837 2°53.579 16.994 4.066605 31.176779 0.914755
2010-07-01 06:07:00 51°24.857 2°53.578 16.993 4.066077 31.177933 0.914755
2010-07-01 06:07:05 51°24.877 2°53.577 16.9972 4.066605 31.183008 0.914755
2010-07-01 06:07:10 51°24.896 2°53.577 16.9923 4.066605 31.186407 0.914755
2010-07-01 06:07:15 51°24.916 2°53.576 16.9966 4.066605 31.186407 0.914755
2010-07-01 06:07:20 51°24.936 2°53.575 17.0041 4.06766 31.198259 0.914755
2010-07-01 06:07:24 51°24.951 2°53.575 17.0127 4.062701 31.159266 0.949579
2010-07-01 06:07:30 51°24.975 2°53.574 17.0218 4.066921 31.19818 0.914755
2010-07-01 06:07:35 51°24.995 2°53.573 17.0319 4.066183 31.194699 0.914755
2010-07-01 06:07:40 51°25.014 2°53.572 17.0401 4.06671 31.198644 0.914755
2010-07-01 06:07:45 51°25.034 2°53.571 17.0451 4.06671 31.198644 0.914755
2010-07-01 06:07:50 51°25.053 2°53.57 17.0508 4.066183 31.191298 0.914755
2010-07-01 06:07:55 51°25.073 2°53.569 17.0558 4.065655 31.189622 0.949579
2010-07-01 06:08:00 51°25.092 2°53.567 17.0585 4.064389 31.173697 0.914755
2010-07-01 06:08:05 51°25.112 2°53.566 17.0642 4.0646 31.172669 0.949579
2010-07-01 06:08:10 51°25.131 2°53.565 17.0671 4.059852 31.126433 0.914755
2010-07-01 06:08:15 51°25.151 2°53.564 17.0736 4.059852 31.126433 0.914755
2010-07-01 06:08:20 51°25.17 2°53.563 17.0805 4.059641 31.115587 0.949579
2010-07-01 06:08:24 51°25.186 2°53.562 17.0885 4.059747 31.112535 0.984403
2010-07-01 06:08:30 51°25.209 2°53.561 17.0953 4.062595 31.130651 0.984403
2010-07-01 06:08:35 51°25.229 2°53.561 17.0992 4.063017 31.129171 0.984403
2010-07-01 06:08:40 51°25.248 2°53.56 17.1024 4.061224 31.110468 0.984403
2010-07-01 06:08:44 51°25.264 2°53.56 17.1074 4.061224 31.110468 0.984403
2010-07-01 06:08:50 51°25.288 2°53.558 17.1145 4.057425 31.072968 0.984403
2010-07-01 06:08:55 51°25.307 2°53.557 17.1136 4.060168 31.092434 1.019227
2010-07-01 06:09:00 51°25.327 2°53.556 17.115 4.058269 31.070591 0.984403
2010-07-01 06:09:05 51°25.346 2°53.555 17.1173 4.061329 31.091062 1.054051
2010-07-01 06:09:10 51°25.365 2°53.555 17.1182 4.056054 31.040992 1.019227
2010-07-01 06:09:15 51°25.385 2°53.554 17.1169 4.056054 31.040992 1.019227
2010-07-01 06:09:20 51°25.404 2°53.553 17.1212 4.055526 31.033118 1.054051
2010-07-01 06:09:25 51°25.424 2°53.553 17.1221 4.055631 31.027832 1.054051
2010-07-01 06:09:30 51°25.443 2°53.552 17.1203 4.057636 31.040988 1.054051
2010-07-01 06:09:35 51°25.463 2°53.551 17.1219 4.055104 31.016029 1.054051
2010-07-01 06:09:40 51°25.482 2°53.55 17.1253 4.055315 31.016142 1.019227
2010-07-01 06:09:45 51°25.502 2°53.549 17.1214 4.055315 31.016142 1.019227
2010-07-01 06:09:50 51°25.521 2°53.548 17.127 4.05542 31.014794 0.984403
2010-07-01 06:09:55 51°25.541 2°53.548 17.1224 4.054998 31.010074 1.019227
2010-07-01 06:10:00 51°25.561 2°53.547 17.1207 4.055737 31.014122 1.054051
2010-07-01 06:10:05 51°25.581 2°53.547 17.1217 4.054682 31.005131 1.019227
2010-07-01 06:10:10 51°25.601 2°53.546 17.1196 4.054787 31.004907 1.019227
2010-07-01 06:10:15 51°25.62 2°53.545 17.1218 4.054787 31.004907 1.019227
2010-07-01 06:10:20 51°25.64 2°53.544 17.1192 4.058058 31.03278 1.054051
2010-07-01 06:10:24 51°25.655 2°53.543 17.1133 4.054576 31.001425 1.019227
2010-07-01 06:10:30 51°25.679 2°53.542 17.109 4.055631 31.009854 0.984403
2010-07-01 06:10:35 51°25.699 2°53.541 17.1083 4.059007 31.039749 1.019227
2010-07-01 06:10:40 51°25.719 2°53.54 17.099 4.059535 31.043121 1.019227
2010-07-01 06:10:45 51°25.738 2°53.539 17.0963 4.059535 31.043121 1.019227
2010-07-01 06:10:50 51°25.758 2°53.538 17.088 4.057636 31.029183 0.984403
2010-07-01 06:10:55 51°25.778 2°53.537 17.0775 4.059218 31.042671 1.019227
2010-07-01 06:11:00 51°25.797 2°53.536 17.0735 4.05964 31.044582 0.949579
2010-07-01 06:11:04 51°25.813 2°53.535 17.0687 4.06059 31.056049 0.949579
2010-07-01 06:11:10 51°25.836 2°53.534 17.0629 4.056792 31.026485 0.949579
2010-07-01 06:11:15 51°25.856 2°53.534 17.0586 4.056792 31.026485 0.949579
2010-07-01 06:11:20 51°25.875 2°53.533 17.0567 4.059429 31.052905 0.914755
2010-07-01 06:11:25 51°25.895 2°53.532 17.0522 4.059535 31.05718 0.949579
2010-07-01 06:11:30 51°25.915 2°53.53 17.0492 4.058796 31.056509 0.914755
2010-07-01 06:11:35 51°25.934 2°53.53 17.0491 4.059113 31.064274 0.949579
2010-07-01 06:11:40 51°25.954 2°53.529 17.0399 4.058797 31.067205 0.879931
2010-07-01 06:11:45 51°25.974 2°53.529 17.0359 4.058797 31.067205 0.879931
2010-07-01 06:11:50 51°25.993 2°53.527 17.0375 4.060168 31.084541 0.914755
2010-07-01 06:11:55 51°26.013 2°53.527 17.031 4.061223 31.097491 0.914755
2010-07-01 06:12:00 51°26.033 2°53.526 17.0339 4.059641 31.08624 0.914755
2010-07-01 06:12:05 51°26.052 2°53.526 17.0324 4.060696 31.099193 0.879931
2010-07-01 06:12:10 51°26.072 2°53.525 17.0316 4.057742 31.076797 0.879931
2010-07-01 06:12:15 51°26.092 2°53.525 17.0283 4.057742 31.076797 0.879931
2010-07-01 06:12:20 51°26.112 2°53.525 17.0259 4.058375 31.086148 0.879931
2010-07-01 06:12:25 51°26.132 2°53.524 17.0275 4.057848 31.085028 0.914755
2010-07-01 06:12:30 51°26.152 2°53.524 17.0255 4.05943 31.101927 0.879931
2010-07-01 06:12:35 51°26.172 2°53.523 17.0237 4.05943 31.10362 0.810283
2010-07-01 06:12:40 51°26.192 2°53.523 17.0211 4.05943 31.10362 0.810283
2010-07-01 06:12:45 51°26.212 2°53.522 17.0272 4.060274 31.111393 0.810283
2010-07-01 06:12:50 51°26.232 2°53.52 17.0207 4.057531 31.090224 0.810283
2010-07-01 06:12:55 51°26.252 2°53.52 17.0216 4.058797 31.104424 0.845107
2010-07-01 06:13:00 51°26.272 2°53.52 17.0209 4.059008 31.107921 0.810283
2010-07-01 06:13:05 51°26.293 2°53.519 17.0229 4.055843 31.083708 0.775459
2010-07-01 06:13:10 51°26.312 2°53.519 17.0175 4.058586 31.108269 0.775459
2010-07-01 06:13:15 51°26.332 2°53.519 17.0146 4.058586 31.108269 0.775459
2010-07-01 06:13:20 51°26.352 2°53.519 17.0055 4.058797 31.108377 0.740634
2010-07-01 06:13:24 51°26.368 2°53.519 17.002 4.054577 31.073458 0.740634
2010-07-01 06:13:30 51°26.392 2°53.519 16.9836 4.054155 31.072111 0.775459
2010-07-01 06:13:35 51°26.412 2°53.518 16.959 4.054261 31.073576 0.740634
2010-07-01 06:13:40 51°26.432 2°53.518 16.9241 4.05827 31.107825 0.740634
2010-07-01 06:13:44 51°26.448 2°53.517 16.9047 4.05827 31.107825 0.740634
2010-07-01 06:13:50 51°26.472 2°53.517 16.8796 4.058481 31.110192 0.70581
2010-07-01 06:13:55 51°26.492 2°53.517 16.8418 4.058586 31.112224 0.70581
2010-07-01 06:14:00 51°26.512 2°53.517 16.8317 4.058586 31.116745 0.670986
2010-07-01 06:14:05 51°26.532 2°53.517 16.8233 4.060591 31.135571 0.636162
2010-07-01 06:14:10 51°26.552 2°53.517 16.7932 4.060591 31.135571 0.636162
2010-07-01 06:14:15 51°26.571 2°53.517 16.7678 4.059747 31.139672 0.636162
2010-07-01 06:14:20 51°26.591 2°53.517 16.7637 4.061963 31.175611 0.636162
2010-07-01 06:14:25 51°26.611 2°53.517 16.7427 4.062491 31.200551 0.566514
2010-07-01 06:14:30 51°26.63 2°53.516 16.7312 4.063546 31.233459 0.53169
2010-07-01 06:14:35 51°26.65 2°53.516 16.709 4.065129 31.266954 0.496866
2010-07-01 06:14:40 51°26.67 2°53.516 16.6788 4.064813 31.285344 0.462042
2010-07-01 06:14:45 51°26.689 2°53.516 16.6631 4.064813 31.285344 0.462042
2010-07-01 06:14:50 51°26.709 2°53.517 16.6546 4.064602 31.298381 0.462042
2010-07-01 06:14:55 51°26.729 2°53.517 16.6307 4.064392 31.317724 0.496866
2010-07-01 06:15:00 51°26.748 2°53.519 16.6027 4.064814 31.333371 0.427218
2010-07-01 06:15:05 51°26.767 2°53.52 16.6009 4.064498 31.345549 0.35757
2010-07-01 06:15:10 51°26.787 2°53.523 16.579 4.063759 31.356404 0.392394
2010-07-01 06:15:15 51°26.806 2°53.523 16.5626 4.063759 31.356404 0.392394
2010-07-01 06:15:20 51°26.825 2°53.527 16.5406 4.063865 31.381434 0.392394
2010-07-01 06:15:24 51°26.841 2°53.528 16.5332 4.063971 31.39557 0.35757
2010-07-01 06:15:30 51°26.864 2°53.531 16.5209 4.063022 31.406387 0.35757
2010-07-01 06:15:35 51°26.884 2°53.532 16.511 4.062706 31.415759 0.35757
2010-07-01 06:15:40 51°26.903 2°53.535 16.5036 4.062495 31.433551 0.35757
2010-07-01 06:15:44 51°26.919 2°53.537 16.5079 4.062495 31.433551 0.35757
2010-07-01 06:15:50 51°26.942 2°53.54 16.4887 4.061862 31.437327 0.287922
2010-07-01 06:15:55 51°26.961 2°53.543 16.4878 4.062073 31.459373 0.287922
2010-07-01 06:16:00 51°26.981 2°53.545 16.4785 4.060913 31.464392 0.287922
2010-07-01 06:16:05 51°27 2°53.547 16.4771 4.043822 31.335255 0.253098
2010-07-01 06:16:10 51°27.019 2°53.55 16.4779 4.061125 31.495761 0.253098
2010-07-01 06:16:15 51°27.038 2°53.551 16.4712 4.061125 31.495761 0.253098
2010-07-01 06:16:20 51°27.058 2°53.553 16.4676 4.060175 31.497992 0.287922
2010-07-01 06:16:25 51°27.077 2°53.555 16.4677 4.060281 31.508191 0.218274
2010-07-01 06:16:30 51°27.096 2°53.558 16.4667 4.059543 31.508188 0.253098
2010-07-01 06:16:35 51°27.116 2°53.559 16.4698 4.058804 31.508186 0.218274
2010-07-01 06:16:40 51°27.135 2°53.562 16.4615 4.058593 31.513332 0.18345
2010-07-01 06:16:45 51°27.154 2°53.564 16.4639 4.058593 31.513332 0.18345
2010-07-01 06:16:50 51°27.174 2°53.566 16.4644 4.058066 31.513996 0.218274
2010-07-01 06:16:55 51°27.193 2°53.568 16.464 4.058171 31.517235 0.218274
2010-07-01 06:17:00 51°27.212 2°53.57 16.4564 4.058382 31.522551 0.253098
2010-07-01 06:17:05 51°27.232 2°53.572 16.4535 4.057644 31.518481 0.18345
2010-07-01 06:17:10 51°27.252 2°53.575 16.4606 4.057116 31.516239 0.218274
2010-07-01 06:17:15 51°27.271 2°53.577 16.4491 4.057116 31.516239 0.218274
2010-07-01 06:17:20 51°27.291 2°53.579 16.4568 4.056272 31.513 0.18345
2010-07-01 06:17:24 51°27.306 2°53.581 16.4515 4.055745 31.510758 0.218274
2010-07-01 06:17:30 51°27.33 2°53.583 16.4581 4.055429 31.507435 0.218274
2010-07-01 06:17:35 51°27.349 2°53.586 16.4601 4.055007 31.505524 0.218274
2010-07-01 06:17:40 51°27.369 2°53.588 16.453 4.054479 31.502699 0.218274
2010-07-01 06:17:44 51°27.385 2°53.59 16.4512 4.054479 31.502699 0.218274
2010-07-01 06:17:50 51°27.409 2°53.593 16.4518 4.05469 31.506272 0.218274
2010-07-01 06:17:55 51°27.429 2°53.595 16.4456 4.053952 31.501038 0.218274
2010-07-01 06:18:00 51°27.448 2°53.597 16.4508 4.054796 31.511257 0.218274
2010-07-01 06:18:05 51°27.468 2°53.6 16.4436 4.05353 31.498545 0.218274
2010-07-01 06:18:10 51°27.487 2°53.601 16.4501 4.05353 31.498545 0.218274
2010-07-01 06:18:15 51°27.507 2°53.604 16.4434 4.053952 31.501619 0.218274
2010-07-01 06:18:20 51°27.526 2°53.606 16.4418 4.053002 31.493975 0.218274
2010-07-01 06:18:25 51°27.546 2°53.608 16.4415 4.053952 31.502782 0.218274
2010-07-01 06:18:30 51°27.566 2°53.61 16.4374 4.05353 31.503197 0.253098
2010-07-01 06:18:35 51°27.586 2°53.612 16.4344 4.053213 31.502782 0.253098
2010-07-01 06:18:40 51°27.606 2°53.615 16.4365 4.053319 31.503114 0.253098
2010-07-01 06:18:45 51°27.625 2°53.617 16.437 4.053319 31.503114 0.253098
2010-07-01 06:18:50 51°27.645 2°53.619 16.4333 4.054479 31.513752 0.287922
2010-07-01 06:18:55 51°27.665 2°53.621 16.4297 4.053846 31.508848 0.287922
2010-07-01 06:19:00 51°27.685 2°53.623 16.4271 4.053002 31.505026 0.253098
2010-07-01 06:19:05 51°27.705 2°53.625 16.4294 4.054268 31.515997 0.322746
2010-07-01 06:19:10 51°27.725 2°53.628 16.4227 4.052897 31.507603 0.287922
2010-07-01 06:19:15 51°27.745 2°53.629 16.4175 4.052897 31.507603 0.287922
2010-07-01 06:19:20 51°27.765 2°53.631 16.4155 4.054796 31.526391 0.287922
2010-07-01 06:19:24 51°27.781 2°53.633 16.4143 4.053319 31.512424 0.322746
2010-07-01 06:19:30 51°27.804 2°53.635 16.4114 4.055323 31.530963 0.322746
2010-07-01 06:19:35 51°27.825 2°53.638 16.4045 4.053952 31.521404 0.322746
2010-07-01 06:19:40 51°27.845 2°53.64 16.407 4.054585 31.528639 0.322746
2010-07-01 06:19:44 51°27.861 2°53.643 16.3939 4.054585 31.528639 0.322746
2010-07-01 06:19:50 51°27.884 2°53.645 16.391 4.05448 31.531219 0.287922
2010-07-01 06:19:55 51°27.903 2°53.648 16.3833 4.053741 31.527147 0.287922
2010-07-01 06:20:00 51°27.924 2°53.651 16.38 4.055007 31.540455 0.287922
2010-07-01 06:20:04 51°27.94 2°53.652 16.3697 4.055324 31.545532 0.322746
2010-07-01 06:20:10 51°27.963 2°53.655 16.358 4.055429 31.550529 0.322746
2010-07-01 06:20:15 51°27.983 2°53.658 16.355 4.055429 31.550529 0.322746
2010-07-01 06:20:20 51°28.003 2°53.66 16.3547 4.055218 31.549282 0.287922
2010-07-01 06:20:25 51°28.023 2°53.662 16.3528 4.056695 31.566178 0.287922
2010-07-01 06:20:30 51°28.043 2°53.665 16.3416 4.056801 31.573514 0.253098
2010-07-01 06:20:35 51°28.062 2°53.666 16.347 4.05754 31.583427 0.287922
2010-07-01 06:20:40 51°28.082 2°53.669 16.3355 4.058595 31.601935 0.253098
2010-07-01 06:20:45 51°28.101 2°53.671 16.3322 4.058595 31.601935 0.253098
2010-07-01 06:20:50 51°28.121 2°53.673 16.3208 4.059439 31.613941 0.253098
2010-07-01 06:20:55 51°28.141 2°53.674 16.3211 4.060599 31.630457 0.253098
2010-07-01 06:21:00 51°28.161 2°53.676 16.3117 4.061127 31.64031 0.218274
2010-07-01 06:21:05 51°28.18 2°53.678 16.3095 4.061866 31.650241 0.218274
2010-07-01 06:21:05 51°28.18 2°53.678 16.3095 4.061866 31.650241 0.218274
2010-07-01 06:21:16 51°28.223 2°53.684 16.3221 4.062182 31.660612 0.218274
2010-07-01 06:23:38 51°28.771 2°53.876 16.3225 4.060706 31.670655 0.218274
2010-07-01 06:23:43 51°28.79 2°53.883 16.3292 4.056169 31.613044 0.218274
2010-07-01 06:23:48 51°28.81 2°53.89 16.3333 4.052053 31.539324 0.18345
2010-07-01 06:23:52 51°28.825 2°53.896 16.3511 4.052053 31.532908 0.148626
2010-07-01 06:23:58 51°28.848 2°53.905 16.3673 4.051631 31.531579 0.148626
2010-07-01 06:24:03 51°28.867 2°53.912 16.3828 4.051631 31.531579 0.148626
2010-07-01 06:24:08 51°28.887 2°53.919 16.3915 4.051209 31.53025 0.148626
2010-07-01 06:24:12 51°28.902 2°53.925 16.3985 4.051737 31.534244 0.18345
2010-07-01 06:24:18 51°28.925 2°53.934 16.4021 4.051209 31.531417 0.148626
2010-07-01 06:24:23 51°28.944 2°53.941 16.3962 4.051526 31.53708 0.148626
2010-07-01 06:24:28 51°28.964 2°53.948 16.3914 4.052159 31.545491 0.148626
2010-07-01 06:24:32 51°28.979 2°53.954 16.3871 4.052159 31.545491 0.148626
2010-07-01 06:24:38 51°29.002 2°53.963 16.3817 4.052159 31.547242 0.148626
2010-07-01 06:24:43 51°29.022 2°53.969 16.3795 4.051632 31.543831 0.148626
2010-07-01 06:24:48 51°29.041 2°53.977 16.3783 4.051632 31.545582 0.148626
2010-07-01 06:24:52 51°29.056 2°53.983 16.38 4.051843 31.549165 0.18345
2010-07-01 06:24:58 51°29.079 2°53.993 16.3731 4.051526 31.544666 0.148626
2010-07-01 06:25:03 51°29.098 2°54 16.3743 4.051526 31.544666 0.148626
2010-07-01 06:25:08 51°29.118 2°54.007 16.3687 4.05121 31.541919 0.148626
2010-07-01 06:25:13 51°29.137 2°54.014 16.3653 4.051737 31.546498 0.148626
2010-07-01 06:25:18 51°29.156 2°54.021 16.3637 4.051843 31.549165 0.148626
2010-07-01 06:25:23 51°29.175 2°54.029 16.3583 4.051526 31.547585 0.148626
2010-07-01 06:25:28 51°29.194 2°54.035 16.3607 4.052265 31.555164 0.078977
2010-07-01 06:25:33 51°29.213 2°54.042 16.3572 4.052265 31.555164 0.078977
2010-07-01 06:25:38 51°29.232 2°54.049 16.3574 4.052476 31.556411 0.148626
2010-07-01 06:25:43 51°29.251 2°54.056 16.3564 4.052159 31.556584 0.113802
2010-07-01 06:25:48 51°29.27 2°54.062 16.365 4.051737 31.553504 0.113802
2010-07-01 06:25:53 51°29.289 2°54.07 16.3667 4.052476 31.563421 0.078977
2010-07-01 06:25:58 51°29.308 2°54.077 16.364 4.051948 31.561762 0.113802
2010-07-01 06:26:03 51°29.327 2°54.084 16.3626 4.051948 31.561762 0.113802
2010-07-01 06:26:08 51°29.347 2°54.091 16.3665 4.052054 31.564432 0.113802
2010-07-01 06:26:12 51°29.362 2°54.097 16.3678 4.051421 31.558935 0.113802
2010-07-01 06:26:18 51°29.385 2°54.105 16.3702 4.051948 31.562931 0.113802
2010-07-01 06:26:23 51°29.404 2°54.112 16.3711 4.050682 31.554274 0.148626
2010-07-01 06:26:28 51°29.423 2°54.12 16.3763 4.050788 31.552854 0.148626
2010-07-01 06:26:32 51°29.438 2°54.125 16.3744 4.050788 31.552854 0.148626
2010-07-01 06:26:37 51°29.457 2°54.133 16.3745 4.05026 31.547105 0.148626
2010-07-01 06:26:43 51°29.48 2°54.141 16.3757 4.049627 31.542192 0.148626
2010-07-01 06:26:48 51°29.5 2°54.148 16.3745 4.0491 31.538196 0.148626
2010-07-01 06:26:53 51°29.519 2°54.156 16.3787 4.048361 31.527698 0.113802
2010-07-01 06:26:58 51°29.538 2°54.163 16.3764 4.048361 31.527698 0.113802
2010-07-01 06:27:03 51°29.557 2°54.171 16.3812 4.048467 31.529781 0.113802
2010-07-01 06:27:08 51°29.576 2°54.178 16.3814 4.04815 31.524115 0.113802
2010-07-01 06:27:13 51°29.596 2°54.186 16.383 4.047517 31.519204 0.078977
2010-07-01 06:27:18 51°29.615 2°54.193 16.3863 4.04815 31.521198 0.113802
2010-07-01 06:27:23 51°29.634 2°54.2 16.3838 4.047623 31.516036 0.113802
2010-07-01 06:27:28 51°29.653 2°54.207 16.3905 4.047517 31.514537 0.078977
2010-07-01 06:27:33 51°29.673 2°54.215 16.3856 4.047517 31.514537 0.078977
2010-07-01 06:27:38 51°29.692 2°54.223 16.3832 4.047834 31.516117 0.113802
2010-07-01 06:27:43 51°29.711 2°54.23 16.3833 4.046673 31.504296 0.113802
2010-07-01 06:27:48 51°29.73 2°54.238 16.3824 4.046251 31.500051 0.113802
2010-07-01 06:27:53 51°29.75 2°54.245 16.3822 4.04699 31.505294 0.113802
2010-07-01 06:27:58 51°29.769 2°54.253 16.3835 4.045513 31.491894 0.113802
2010-07-01 06:28:03 51°29.788 2°54.26 16.3846 4.045513 31.491894 0.113802
2010-07-01 06:28:08 51°29.807 2°54.268 16.3849 4.046462 31.497219 0.148626
2010-07-01 06:28:13 51°29.826 2°54.276 16.3878 4.045407 31.486317 0.148626
2010-07-01 06:28:18 51°29.846 2°54.283 16.3885 4.046568 31.498135 0.113802
2010-07-01 06:28:23 51°29.865 2°54.291 16.3836 4.046251 31.496554 0.113802
2010-07-01 06:28:28 51°29.885 2°54.298 16.3841 4.046779 31.500548 0.148626
2010-07-01 06:28:32 51°29.9 2°54.305 16.3841 4.046779 31.500548 0.148626
2010-07-01 06:28:38 51°29.923 2°54.315 16.3905 4.046779 31.501714 0.148626
2010-07-01 06:28:43 51°29.943 2°54.324 16.3856 4.047412 31.506624 0.148626
2010-07-01 06:28:48 51°29.962 2°54.332 16.388 4.047201 31.505959 0.18345
2010-07-01 06:28:52 51°29.978 2°54.339 16.3889 4.047517 31.506957 0.18345
2010-07-01 06:28:58 51°30.001 2°54.349 16.3875 4.046884 31.502047 0.18345
2010-07-01 06:29:03 51°30.02 2°54.358 16.3934 4.046884 31.502047 0.18345
2010-07-01 06:29:08 51°30.04 2°54.366 16.3957 4.048361 31.512531 0.18345
2010-07-01 06:29:13 51°30.059 2°54.375 16.3947 4.047623 31.507872 0.148626
2010-07-01 06:29:18 51°30.079 2°54.383 16.3979 4.048361 31.51603 0.18345
2010-07-01 06:29:23 51°30.098 2°54.391 16.3982 4.048678 31.516444 0.18345
2010-07-01 06:29:28 51°30.118 2°54.4 16.3954 4.048889 31.518275 0.18345
2010-07-01 06:29:33 51°30.137 2°54.409 16.3973 4.048889 31.518275 0.18345
2010-07-01 06:29:38 51°30.157 2°54.417 16.3961 4.048994 31.518607 0.18345
2010-07-01 06:29:43 51°30.176 2°54.426 16.3941 4.050155 31.525179 0.18345
2010-07-01 06:29:48 51°30.196 2°54.434 16.3978 4.049205 31.515774 0.148626
2010-07-01 06:29:53 51°30.215 2°54.443 16.3947 4.050365 31.525843 0.148626
2010-07-01 06:29:58 51°30.235 2°54.451 16.3934 4.051842 31.535159 0.113802
2010-07-01 06:30:03 51°30.255 2°54.46 16.3956 4.051842 31.535159 0.113802
2010-07-01 06:30:08 51°30.274 2°54.468 16.3938 4.050998 31.527837 0.078977
2010-07-01 06:30:13 51°30.294 2°54.477 16.3972 4.052475 31.541235 0.078977
2010-07-01 06:30:18 51°30.313 2°54.486 16.394 4.050893 31.528671 0.113802
2010-07-01 06:30:23 51°30.333 2°54.494 16.3929 4.051315 31.531749 0.113802
2010-07-01 06:30:28 51°30.353 2°54.502 16.3906 4.051737 31.534244 0.078977
2010-07-01 06:30:33 51°30.372 2°54.511 16.3908 4.051737 31.534244 0.078977
2010-07-01 06:30:38 51°30.392 2°54.52 16.3917 4.052264 31.539988 0.113802
2010-07-01 06:30:43 51°30.412 2°54.529 16.3887 4.053108 31.547311 0.113802
2010-07-01 06:30:48 51°30.432 2°54.537 16.3844 4.053109 31.549645 0.078977
2010-07-01 06:30:52 51°30.447 2°54.544 16.3844 4.054164 31.55705 0.113802
2010-07-01 06:30:58 51°30.47 2°54.556 16.3772 4.054269 31.559716 0.078977
2010-07-01 06:31:03 51°30.49 2°54.564 16.3666 4.054269 31.559716 0.078977
2010-07-01 06:31:08 51°30.508 2°54.576 16.3538 4.053319 31.549142 0.113802
2010-07-01 06:31:12 51°30.524 2°54.584 16.3383 4.051737 31.536577 0.078977
2010-07-01 06:31:18 51°30.546 2°54.597 16.3232 4.054058 31.559053 0.078977
2010-07-01 06:31:23 51°30.565 2°54.607 16.3126 4.055219 31.569709 0.078977
2010-07-01 06:31:28 51°30.584 2°54.618 16.2884 4.055113 31.569377 0.113802
2010-07-01 06:31:33 51°30.602 2°54.627 16.2881 4.055113 31.569377 0.113802
2010-07-01 06:31:38 51°30.618 2°54.637 16.2795 4.056063 31.579371 0.078977
2010-07-01 06:31:43 51°30.633 2°54.644 16.2628 4.056907 31.591958 0.044153
2010-07-01 06:31:48 51°30.647 2°54.652 16.2566 4.057751 31.607474 0.009329
2010-07-01 06:31:53 51°30.661 2°54.658 16.2362 4.058068 31.621931 0.009329
2010-07-01 06:31:58 51°30.674 2°54.665 16.2334 4.060283 31.650558 -0.025495
2010-07-01 06:32:03 51°30.686 2°54.671 16.2247 4.060283 31.650558 -0.025495
2010-07-01 06:32:08 51°30.698 2°54.677 16.214 4.061655 31.675389 0.009329
2010-07-01 06:32:13 51°30.709 2°54.683 16.2135 4.061233 31.681703 -0.025495
2010-07-01 06:32:18 51°30.72 2°54.689 16.2041 4.062183 31.702895 -0.025495
2010-07-01 06:32:23 51°30.731 2°54.695 16.2059 4.0625 31.715063 0.009329
2010-07-01 06:32:28 51°30.741 2°54.701 16.2057 4.061972 31.71989 -0.060319